<?xml version="1.0" encoding="UTF-8" standalone="no" ?>
<gpx xmlns="http://www.topografix.com/GPX/1/1" xmlns:xsi="http://www.w3.org/2001/XMLSchema-instance" xsi:schemaLocation="http://www.topografix.com/GPX/1/1 http://www.topografix.com/GPX/1/1/gpx.xsd" version="1.1" creator="VisuGPX - https://www.visugpx.com">
  <metadata>
    <name>randonnée</name>
    <desc><![CDATA[encore trop chaud pour faire une belle marche]]></desc>
  </metadata>
  <trk>
    <name><![CDATA[Tracé actuel: 01 AOU 2019 12:50]]></name>
    <trkseg>
      <trkpt lat="49.63425" lon="4.98096">
        <ele>231.33</ele>
        <time>2019-08-01T10:50:43Z</time>
      </trkpt>
      <trkpt lat="49.63423" lon="4.98072">
        <ele>231.33</ele>
        <time>2019-08-01T10:50:56Z</time>
      </trkpt>
      <trkpt lat="49.63422" lon="4.98072">
        <ele>231.33</ele>
        <time>2019-08-01T10:50:57Z</time>
      </trkpt>
      <trkpt lat="49.63413" lon="4.9806">
        <ele>231.33</ele>
        <time>2019-08-01T10:51:13Z</time>
      </trkpt>
      <trkpt lat="49.63401" lon="4.98043">
        <ele>231.33</ele>
        <time>2019-08-01T10:51:30Z</time>
      </trkpt>
      <trkpt lat="49.63393" lon="4.98033">
        <ele>231.33</ele>
        <time>2019-08-01T10:51:45Z</time>
      </trkpt>
      <trkpt lat="49.63389" lon="4.98024">
        <ele>231.33</ele>
        <time>2019-08-01T10:51:51Z</time>
      </trkpt>
      <trkpt lat="49.6338" lon="4.98004">
        <ele>231.33</ele>
        <time>2019-08-01T10:52:07Z</time>
      </trkpt>
      <trkpt lat="49.63375" lon="4.97993">
        <ele>231.33</ele>
        <time>2019-08-01T10:52:17Z</time>
      </trkpt>
      <trkpt lat="49.63374" lon="4.97989">
        <ele>231.33</ele>
        <time>2019-08-01T10:52:20Z</time>
      </trkpt>
      <trkpt lat="49.63376" lon="4.97983">
        <ele>231.33</ele>
        <time>2019-08-01T10:52:24Z</time>
      </trkpt>
      <trkpt lat="49.63377" lon="4.97973">
        <ele>231.33</ele>
        <time>2019-08-01T10:52:33Z</time>
      </trkpt>
      <trkpt lat="49.63396" lon="4.97959">
        <ele>231.33</ele>
        <time>2019-08-01T10:52:52Z</time>
      </trkpt>
      <trkpt lat="49.63408" lon="4.97949">
        <ele>231.33</ele>
        <time>2019-08-01T10:53:05Z</time>
      </trkpt>
      <trkpt lat="49.63419" lon="4.97944">
        <ele>231.81</ele>
        <time>2019-08-01T10:53:20Z</time>
      </trkpt>
      <trkpt lat="49.63432" lon="4.9793">
        <ele>231.81</ele>
        <time>2019-08-01T10:53:34Z</time>
      </trkpt>
      <trkpt lat="49.63436" lon="4.97907">
        <ele>231.81</ele>
        <time>2019-08-01T10:53:43Z</time>
      </trkpt>
      <trkpt lat="49.63439" lon="4.97902">
        <ele>231.81</ele>
        <time>2019-08-01T10:53:47Z</time>
      </trkpt>
      <trkpt lat="49.63447" lon="4.97891">
        <ele>231.33</ele>
        <time>2019-08-01T10:54:00Z</time>
      </trkpt>
      <trkpt lat="49.63459" lon="4.97877">
        <ele>231.33</ele>
        <time>2019-08-01T10:54:16Z</time>
      </trkpt>
      <trkpt lat="49.63472" lon="4.97857">
        <ele>231.81</ele>
        <time>2019-08-01T10:54:32Z</time>
      </trkpt>
      <trkpt lat="49.63478" lon="4.97855">
        <ele>231.33</ele>
        <time>2019-08-01T10:54:48Z</time>
      </trkpt>
      <trkpt lat="49.63483" lon="4.97847">
        <ele>231.33</ele>
        <time>2019-08-01T10:54:56Z</time>
      </trkpt>
      <trkpt lat="49.6349" lon="4.97832">
        <ele>231.33</ele>
        <time>2019-08-01T10:55:06Z</time>
      </trkpt>
      <trkpt lat="49.63504" lon="4.9782">
        <ele>231.33</ele>
        <time>2019-08-01T10:55:19Z</time>
      </trkpt>
      <trkpt lat="49.63513" lon="4.97804">
        <ele>231.33</ele>
        <time>2019-08-01T10:55:35Z</time>
      </trkpt>
      <trkpt lat="49.63525" lon="4.97781">
        <ele>231.33</ele>
        <time>2019-08-01T10:55:52Z</time>
      </trkpt>
      <trkpt lat="49.63534" lon="4.97763">
        <ele>231.33</ele>
        <time>2019-08-01T10:56:07Z</time>
      </trkpt>
      <trkpt lat="49.63537" lon="4.97749">
        <ele>231.33</ele>
        <time>2019-08-01T10:56:14Z</time>
      </trkpt>
      <trkpt lat="49.63543" lon="4.97732">
        <ele>231.33</ele>
        <time>2019-08-01T10:56:27Z</time>
      </trkpt>
      <trkpt lat="49.63549" lon="4.9771">
        <ele>230.85</ele>
        <time>2019-08-01T10:56:40Z</time>
      </trkpt>
      <trkpt lat="49.63561" lon="4.97697">
        <ele>230.85</ele>
        <time>2019-08-01T10:56:55Z</time>
      </trkpt>
      <trkpt lat="49.63569" lon="4.97691">
        <ele>230.85</ele>
        <time>2019-08-01T10:57:08Z</time>
      </trkpt>
      <trkpt lat="49.63572" lon="4.9769">
        <ele>230.85</ele>
        <time>2019-08-01T10:57:10Z</time>
      </trkpt>
      <trkpt lat="49.63579" lon="4.97683">
        <ele>230.85</ele>
        <time>2019-08-01T10:57:15Z</time>
      </trkpt>
      <trkpt lat="49.63593" lon="4.97669">
        <ele>230.85</ele>
        <time>2019-08-01T10:57:29Z</time>
      </trkpt>
      <trkpt lat="49.63601" lon="4.97655">
        <ele>230.85</ele>
        <time>2019-08-01T10:57:41Z</time>
      </trkpt>
      <trkpt lat="49.63601" lon="4.97654">
        <ele>230.85</ele>
        <time>2019-08-01T10:57:42Z</time>
      </trkpt>
      <trkpt lat="49.6361" lon="4.97634">
        <ele>230.85</ele>
        <time>2019-08-01T10:57:55Z</time>
      </trkpt>
      <trkpt lat="49.63615" lon="4.97612">
        <ele>230.85</ele>
        <time>2019-08-01T10:58:10Z</time>
      </trkpt>
      <trkpt lat="49.63615" lon="4.97593">
        <ele>230.85</ele>
        <time>2019-08-01T10:58:24Z</time>
      </trkpt>
      <trkpt lat="49.63616" lon="4.97569">
        <ele>230.37</ele>
        <time>2019-08-01T10:58:38Z</time>
      </trkpt>
      <trkpt lat="49.63617" lon="4.97552">
        <ele>230.37</ele>
        <time>2019-08-01T10:58:50Z</time>
      </trkpt>
      <trkpt lat="49.63617" lon="4.97528">
        <ele>230.37</ele>
        <time>2019-08-01T10:59:06Z</time>
      </trkpt>
      <trkpt lat="49.63618" lon="4.97526">
        <ele>230.37</ele>
        <time>2019-08-01T10:59:08Z</time>
      </trkpt>
      <trkpt lat="49.63618" lon="4.97512">
        <ele>230.37</ele>
        <time>2019-08-01T10:59:17Z</time>
      </trkpt>
      <trkpt lat="49.6362" lon="4.97498">
        <ele>230.37</ele>
        <time>2019-08-01T10:59:33Z</time>
      </trkpt>
      <trkpt lat="49.63625" lon="4.97477">
        <ele>230.37</ele>
        <time>2019-08-01T10:59:47Z</time>
      </trkpt>
      <trkpt lat="49.63625" lon="4.97472">
        <ele>230.37</ele>
        <time>2019-08-01T10:59:51Z</time>
      </trkpt>
      <trkpt lat="49.63621" lon="4.97464">
        <ele>230.37</ele>
        <time>2019-08-01T10:59:59Z</time>
      </trkpt>
      <trkpt lat="49.63611" lon="4.97452">
        <ele>230.37</ele>
        <time>2019-08-01T11:00:13Z</time>
      </trkpt>
      <trkpt lat="49.63612" lon="4.9745">
        <ele>230.37</ele>
        <time>2019-08-01T11:00:19Z</time>
      </trkpt>
      <trkpt lat="49.63609" lon="4.97444">
        <ele>230.37</ele>
        <time>2019-08-01T11:00:23Z</time>
      </trkpt>
      <trkpt lat="49.63605" lon="4.97435">
        <ele>229.41</ele>
        <time>2019-08-01T11:00:38Z</time>
      </trkpt>
      <trkpt lat="49.636" lon="4.9743">
        <ele>229.41</ele>
        <time>2019-08-01T11:00:46Z</time>
      </trkpt>
      <trkpt lat="49.63594" lon="4.97367">
        <ele>197.21</ele>
        <time>2019-08-01T11:01:01Z</time>
      </trkpt>
      <trkpt lat="49.6358" lon="4.97358">
        <ele>174.62</ele>
        <time>2019-08-01T11:01:16Z</time>
      </trkpt>
      <trkpt lat="49.63577" lon="4.97356">
        <ele>173.17</ele>
        <time>2019-08-01T11:01:18Z</time>
      </trkpt>
      <trkpt lat="49.6357" lon="4.97349">
        <ele>171.73</ele>
        <time>2019-08-01T11:01:24Z</time>
      </trkpt>
      <trkpt lat="49.6356" lon="4.97327">
        <ele>175.58</ele>
        <time>2019-08-01T11:01:40Z</time>
      </trkpt>
      <trkpt lat="49.63554" lon="4.97303">
        <ele>176.06</ele>
        <time>2019-08-01T11:01:54Z</time>
      </trkpt>
      <trkpt lat="49.63548" lon="4.97284">
        <ele>177.98</ele>
        <time>2019-08-01T11:02:07Z</time>
      </trkpt>
      <trkpt lat="49.63539" lon="4.97257">
        <ele>175.1</ele>
        <time>2019-08-01T11:02:21Z</time>
      </trkpt>
      <trkpt lat="49.6353" lon="4.97235">
        <ele>169.33</ele>
        <time>2019-08-01T11:02:35Z</time>
      </trkpt>
      <trkpt lat="49.63524" lon="4.97215">
        <ele>169.33</ele>
        <time>2019-08-01T11:02:49Z</time>
      </trkpt>
      <trkpt lat="49.63518" lon="4.97192">
        <ele>171.73</ele>
        <time>2019-08-01T11:03:04Z</time>
      </trkpt>
      <trkpt lat="49.6351" lon="4.97166">
        <ele>170.77</ele>
        <time>2019-08-01T11:03:20Z</time>
      </trkpt>
      <trkpt lat="49.63501" lon="4.97139">
        <ele>165.96</ele>
        <time>2019-08-01T11:03:36Z</time>
      </trkpt>
      <trkpt lat="49.63491" lon="4.97115">
        <ele>161.16</ele>
        <time>2019-08-01T11:03:50Z</time>
      </trkpt>
      <trkpt lat="49.63487" lon="4.97097">
        <ele>161.16</ele>
        <time>2019-08-01T11:04:05Z</time>
      </trkpt>
      <trkpt lat="49.63482" lon="4.97077">
        <ele>162.6</ele>
        <time>2019-08-01T11:04:19Z</time>
      </trkpt>
      <trkpt lat="49.63475" lon="4.97053">
        <ele>164.04</ele>
        <time>2019-08-01T11:04:34Z</time>
      </trkpt>
      <trkpt lat="49.63468" lon="4.97027">
        <ele>162.12</ele>
        <time>2019-08-01T11:04:48Z</time>
      </trkpt>
      <trkpt lat="49.63463" lon="4.97004">
        <ele>159.24</ele>
        <time>2019-08-01T11:05:04Z</time>
      </trkpt>
      <trkpt lat="49.6346" lon="4.96976">
        <ele>158.75</ele>
        <time>2019-08-01T11:05:21Z</time>
      </trkpt>
      <trkpt lat="49.63451" lon="4.96949">
        <ele>159.72</ele>
        <time>2019-08-01T11:05:37Z</time>
      </trkpt>
      <trkpt lat="49.63446" lon="4.96938">
        <ele>161.64</ele>
        <time>2019-08-01T11:05:49Z</time>
      </trkpt>
      <trkpt lat="49.63438" lon="4.96924">
        <ele>162.6</ele>
        <time>2019-08-01T11:06:03Z</time>
      </trkpt>
      <trkpt lat="49.63426" lon="4.96907">
        <ele>164.04</ele>
        <time>2019-08-01T11:06:17Z</time>
      </trkpt>
      <trkpt lat="49.63409" lon="4.96887">
        <ele>161.64</ele>
        <time>2019-08-01T11:06:36Z</time>
      </trkpt>
      <trkpt lat="49.63398" lon="4.96873">
        <ele>160.68</ele>
        <time>2019-08-01T11:06:51Z</time>
      </trkpt>
      <trkpt lat="49.63384" lon="4.96855">
        <ele>161.16</ele>
        <time>2019-08-01T11:07:07Z</time>
      </trkpt>
      <trkpt lat="49.63374" lon="4.96845">
        <ele>163.08</ele>
        <time>2019-08-01T11:07:22Z</time>
      </trkpt>
      <trkpt lat="49.6336" lon="4.96827">
        <ele>166.45</ele>
        <time>2019-08-01T11:07:38Z</time>
      </trkpt>
      <trkpt lat="49.63352" lon="4.96817">
        <ele>166.93</ele>
        <time>2019-08-01T11:07:50Z</time>
      </trkpt>
      <trkpt lat="49.63341" lon="4.96795">
        <ele>169.33</ele>
        <time>2019-08-01T11:08:04Z</time>
      </trkpt>
      <trkpt lat="49.63335" lon="4.96777">
        <ele>168.85</ele>
        <time>2019-08-01T11:08:17Z</time>
      </trkpt>
      <trkpt lat="49.63332" lon="4.96752">
        <ele>168.37</ele>
        <time>2019-08-01T11:08:32Z</time>
      </trkpt>
      <trkpt lat="49.6333" lon="4.96728">
        <ele>166.45</ele>
        <time>2019-08-01T11:08:48Z</time>
      </trkpt>
      <trkpt lat="49.63322" lon="4.96696">
        <ele>164.52</ele>
        <time>2019-08-01T11:09:06Z</time>
      </trkpt>
      <trkpt lat="49.63313" lon="4.9668">
        <ele>164.52</ele>
        <time>2019-08-01T11:09:20Z</time>
      </trkpt>
      <trkpt lat="49.63301" lon="4.96665">
        <ele>164.04</ele>
        <time>2019-08-01T11:09:34Z</time>
      </trkpt>
      <trkpt lat="49.63289" lon="4.96643">
        <ele>165.48</ele>
        <time>2019-08-01T11:09:52Z</time>
      </trkpt>
      <trkpt lat="49.63283" lon="4.96614">
        <ele>165</ele>
        <time>2019-08-01T11:10:07Z</time>
      </trkpt>
      <trkpt lat="49.63273" lon="4.96599">
        <ele>166.93</ele>
        <time>2019-08-01T11:10:19Z</time>
      </trkpt>
      <trkpt lat="49.63255" lon="4.96587">
        <ele>166.45</ele>
        <time>2019-08-01T11:10:34Z</time>
      </trkpt>
      <trkpt lat="49.63238" lon="4.96574">
        <ele>165.96</ele>
        <time>2019-08-01T11:10:49Z</time>
      </trkpt>
      <trkpt lat="49.63224" lon="4.96563">
        <ele>165.96</ele>
        <time>2019-08-01T11:11:03Z</time>
      </trkpt>
      <trkpt lat="49.6321" lon="4.96551">
        <ele>166.45</ele>
        <time>2019-08-01T11:11:17Z</time>
      </trkpt>
      <trkpt lat="49.63193" lon="4.96539">
        <ele>165.48</ele>
        <time>2019-08-01T11:11:32Z</time>
      </trkpt>
      <trkpt lat="49.63176" lon="4.96528">
        <ele>164.04</ele>
        <time>2019-08-01T11:11:44Z</time>
      </trkpt>
      <trkpt lat="49.63171" lon="4.96526">
        <ele>163.56</ele>
        <time>2019-08-01T11:11:51Z</time>
      </trkpt>
      <trkpt lat="49.63156" lon="4.96517">
        <ele>162.12</ele>
        <time>2019-08-01T11:12:05Z</time>
      </trkpt>
      <trkpt lat="49.63137" lon="4.96506">
        <ele>162.12</ele>
        <time>2019-08-01T11:12:20Z</time>
      </trkpt>
      <trkpt lat="49.6312" lon="4.96495">
        <ele>162.12</ele>
        <time>2019-08-01T11:12:35Z</time>
      </trkpt>
      <trkpt lat="49.63103" lon="4.96485">
        <ele>162.12</ele>
        <time>2019-08-01T11:12:51Z</time>
      </trkpt>
      <trkpt lat="49.63098" lon="4.96483">
        <ele>162.12</ele>
        <time>2019-08-01T11:12:57Z</time>
      </trkpt>
      <trkpt lat="49.63079" lon="4.96471">
        <ele>162.6</ele>
        <time>2019-08-01T11:13:15Z</time>
      </trkpt>
      <trkpt lat="49.6306" lon="4.96458">
        <ele>162.6</ele>
        <time>2019-08-01T11:13:32Z</time>
      </trkpt>
      <trkpt lat="49.63044" lon="4.96449">
        <ele>163.56</ele>
        <time>2019-08-01T11:13:47Z</time>
      </trkpt>
      <trkpt lat="49.63028" lon="4.96438">
        <ele>164.52</ele>
        <time>2019-08-01T11:14:01Z</time>
      </trkpt>
      <trkpt lat="49.63013" lon="4.96429">
        <ele>163.56</ele>
        <time>2019-08-01T11:14:16Z</time>
      </trkpt>
      <trkpt lat="49.63001" lon="4.9642">
        <ele>162.6</ele>
        <time>2019-08-01T11:14:30Z</time>
      </trkpt>
      <trkpt lat="49.62984" lon="4.96409">
        <ele>162.6</ele>
        <time>2019-08-01T11:14:46Z</time>
      </trkpt>
      <trkpt lat="49.62969" lon="4.96397">
        <ele>163.08</ele>
        <time>2019-08-01T11:15:01Z</time>
      </trkpt>
      <trkpt lat="49.62949" lon="4.96386">
        <ele>164.04</ele>
        <time>2019-08-01T11:15:16Z</time>
      </trkpt>
      <trkpt lat="49.62947" lon="4.96381">
        <ele>163.56</ele>
        <time>2019-08-01T11:15:22Z</time>
      </trkpt>
      <trkpt lat="49.62934" lon="4.9637">
        <ele>165.48</ele>
        <time>2019-08-01T11:15:37Z</time>
      </trkpt>
      <trkpt lat="49.62918" lon="4.96355">
        <ele>166.93</ele>
        <time>2019-08-01T11:15:52Z</time>
      </trkpt>
      <trkpt lat="49.62902" lon="4.96344">
        <ele>168.37</ele>
        <time>2019-08-01T11:16:08Z</time>
      </trkpt>
      <trkpt lat="49.6289" lon="4.96335">
        <ele>169.33</ele>
        <time>2019-08-01T11:16:22Z</time>
      </trkpt>
      <trkpt lat="49.62877" lon="4.96324">
        <ele>171.25</ele>
        <time>2019-08-01T11:16:37Z</time>
      </trkpt>
      <trkpt lat="49.62862" lon="4.96312">
        <ele>173.17</ele>
        <time>2019-08-01T11:16:53Z</time>
      </trkpt>
      <trkpt lat="49.62849" lon="4.96306">
        <ele>174.14</ele>
        <time>2019-08-01T11:17:07Z</time>
      </trkpt>
      <trkpt lat="49.62836" lon="4.96299">
        <ele>175.58</ele>
        <time>2019-08-01T11:17:21Z</time>
      </trkpt>
      <trkpt lat="49.62835" lon="4.96298">
        <ele>175.58</ele>
        <time>2019-08-01T11:17:22Z</time>
      </trkpt>
      <trkpt lat="49.62813" lon="4.96294">
        <ele>177.5</ele>
        <time>2019-08-01T11:17:39Z</time>
      </trkpt>
      <trkpt lat="49.62797" lon="4.96284">
        <ele>177.02</ele>
        <time>2019-08-01T11:17:57Z</time>
      </trkpt>
      <trkpt lat="49.62788" lon="4.96277">
        <ele>177.98</ele>
        <time>2019-08-01T11:18:10Z</time>
      </trkpt>
      <trkpt lat="49.62783" lon="4.96272">
        <ele>178.46</ele>
        <time>2019-08-01T11:18:15Z</time>
      </trkpt>
      <trkpt lat="49.62775" lon="4.96263">
        <ele>179.42</ele>
        <time>2019-08-01T11:18:27Z</time>
      </trkpt>
      <trkpt lat="49.62762" lon="4.96251">
        <ele>178.94</ele>
        <time>2019-08-01T11:18:40Z</time>
      </trkpt>
      <trkpt lat="49.62744" lon="4.96237">
        <ele>174.62</ele>
        <time>2019-08-01T11:18:55Z</time>
      </trkpt>
      <trkpt lat="49.62728" lon="4.96228">
        <ele>174.14</ele>
        <time>2019-08-01T11:19:09Z</time>
      </trkpt>
      <trkpt lat="49.6271" lon="4.96218">
        <ele>176.06</ele>
        <time>2019-08-01T11:19:23Z</time>
      </trkpt>
      <trkpt lat="49.62697" lon="4.96206">
        <ele>175.1</ele>
        <time>2019-08-01T11:19:38Z</time>
      </trkpt>
      <trkpt lat="49.6269" lon="4.96196">
        <ele>173.66</ele>
        <time>2019-08-01T11:19:48Z</time>
      </trkpt>
      <trkpt lat="49.62683" lon="4.96183">
        <ele>173.17</ele>
        <time>2019-08-01T11:19:56Z</time>
      </trkpt>
      <trkpt lat="49.62669" lon="4.96161">
        <ele>172.21</ele>
        <time>2019-08-01T11:20:13Z</time>
      </trkpt>
      <trkpt lat="49.62661" lon="4.96149">
        <ele>174.14</ele>
        <time>2019-08-01T11:20:26Z</time>
      </trkpt>
      <trkpt lat="49.62652" lon="4.96137">
        <ele>174.14</ele>
        <time>2019-08-01T11:20:37Z</time>
      </trkpt>
      <trkpt lat="49.62643" lon="4.96129">
        <ele>174.62</ele>
        <time>2019-08-01T11:20:50Z</time>
      </trkpt>
      <trkpt lat="49.62634" lon="4.96119">
        <ele>176.54</ele>
        <time>2019-08-01T11:21:01Z</time>
      </trkpt>
      <trkpt lat="49.62622" lon="4.96107">
        <ele>178.94</ele>
        <time>2019-08-01T11:21:15Z</time>
      </trkpt>
      <trkpt lat="49.62615" lon="4.96103">
        <ele>180.38</ele>
        <time>2019-08-01T11:21:23Z</time>
      </trkpt>
      <trkpt lat="49.6261" lon="4.96097">
        <ele>182.31</ele>
        <time>2019-08-01T11:21:30Z</time>
      </trkpt>
      <trkpt lat="49.62593" lon="4.96095">
        <ele>185.19</ele>
        <time>2019-08-01T11:21:44Z</time>
      </trkpt>
      <trkpt lat="49.62576" lon="4.96097">
        <ele>185.67</ele>
        <time>2019-08-01T11:22:00Z</time>
      </trkpt>
      <trkpt lat="49.62562" lon="4.961">
        <ele>181.83</ele>
        <time>2019-08-01T11:22:14Z</time>
      </trkpt>
      <trkpt lat="49.62547" lon="4.96102">
        <ele>176.06</ele>
        <time>2019-08-01T11:22:30Z</time>
      </trkpt>
      <trkpt lat="49.6253" lon="4.96107">
        <ele>175.1</ele>
        <time>2019-08-01T11:22:45Z</time>
      </trkpt>
      <trkpt lat="49.62515" lon="4.96108">
        <ele>175.1</ele>
        <time>2019-08-01T11:23:01Z</time>
      </trkpt>
      <trkpt lat="49.62498" lon="4.96106">
        <ele>176.06</ele>
        <time>2019-08-01T11:23:16Z</time>
      </trkpt>
      <trkpt lat="49.6248" lon="4.961">
        <ele>177.98</ele>
        <time>2019-08-01T11:23:32Z</time>
      </trkpt>
      <trkpt lat="49.62471" lon="4.96098">
        <ele>178.46</ele>
        <time>2019-08-01T11:23:42Z</time>
      </trkpt>
      <trkpt lat="49.62456" lon="4.96095">
        <ele>177.98</ele>
        <time>2019-08-01T11:23:55Z</time>
      </trkpt>
      <trkpt lat="49.6244" lon="4.96086">
        <ele>176.06</ele>
        <time>2019-08-01T11:24:12Z</time>
      </trkpt>
      <trkpt lat="49.62425" lon="4.96077">
        <ele>172.69</ele>
        <time>2019-08-01T11:24:28Z</time>
      </trkpt>
      <trkpt lat="49.62406" lon="4.96068">
        <ele>173.17</ele>
        <time>2019-08-01T11:24:45Z</time>
      </trkpt>
      <trkpt lat="49.62404" lon="4.96065">
        <ele>173.66</ele>
        <time>2019-08-01T11:24:53Z</time>
      </trkpt>
      <trkpt lat="49.62392" lon="4.9604">
        <ele>175.58</ele>
        <time>2019-08-01T11:25:08Z</time>
      </trkpt>
      <trkpt lat="49.62384" lon="4.96018">
        <ele>175.58</ele>
        <time>2019-08-01T11:25:23Z</time>
      </trkpt>
      <trkpt lat="49.62377" lon="4.95997">
        <ele>174.62</ele>
        <time>2019-08-01T11:25:38Z</time>
      </trkpt>
      <trkpt lat="49.62372" lon="4.9597">
        <ele>174.14</ele>
        <time>2019-08-01T11:25:55Z</time>
      </trkpt>
      <trkpt lat="49.62367" lon="4.95944">
        <ele>174.14</ele>
        <time>2019-08-01T11:26:11Z</time>
      </trkpt>
      <trkpt lat="49.62364" lon="4.95917">
        <ele>173.66</ele>
        <time>2019-08-01T11:26:26Z</time>
      </trkpt>
      <trkpt lat="49.62356" lon="4.95898">
        <ele>174.62</ele>
        <time>2019-08-01T11:26:41Z</time>
      </trkpt>
      <trkpt lat="49.6235" lon="4.95884">
        <ele>173.66</ele>
        <time>2019-08-01T11:26:55Z</time>
      </trkpt>
      <trkpt lat="49.62345" lon="4.95885">
        <ele>173.66</ele>
        <time>2019-08-01T11:27:01Z</time>
      </trkpt>
      <trkpt lat="49.62321" lon="4.95891">
        <ele>177.98</ele>
        <time>2019-08-01T11:27:17Z</time>
      </trkpt>
      <trkpt lat="49.62299" lon="4.95894">
        <ele>180.87</ele>
        <time>2019-08-01T11:27:36Z</time>
      </trkpt>
      <trkpt lat="49.62279" lon="4.95908">
        <ele>183.75</ele>
        <time>2019-08-01T11:27:52Z</time>
      </trkpt>
      <trkpt lat="49.62271" lon="4.95923">
        <ele>189.52</ele>
        <time>2019-08-01T11:28:07Z</time>
      </trkpt>
      <trkpt lat="49.62263" lon="4.95937">
        <ele>187.59</ele>
        <time>2019-08-01T11:28:18Z</time>
      </trkpt>
      <trkpt lat="49.62251" lon="4.95951">
        <ele>188.08</ele>
        <time>2019-08-01T11:28:33Z</time>
      </trkpt>
      <trkpt lat="49.6225" lon="4.95953">
        <ele>188.08</ele>
        <time>2019-08-01T11:28:34Z</time>
      </trkpt>
      <trkpt lat="49.62244" lon="4.9596">
        <ele>189.04</ele>
        <time>2019-08-01T11:28:39Z</time>
      </trkpt>
      <trkpt lat="49.62233" lon="4.95976">
        <ele>189.04</ele>
        <time>2019-08-01T11:28:54Z</time>
      </trkpt>
      <trkpt lat="49.62222" lon="4.95997">
        <ele>188.08</ele>
        <time>2019-08-01T11:29:10Z</time>
      </trkpt>
      <trkpt lat="49.6221" lon="4.96013">
        <ele>188.08</ele>
        <time>2019-08-01T11:29:26Z</time>
      </trkpt>
      <trkpt lat="49.62208" lon="4.96013">
        <ele>187.59</ele>
        <time>2019-08-01T11:29:28Z</time>
      </trkpt>
      <trkpt lat="49.62197" lon="4.96018">
        <ele>185.19</ele>
        <time>2019-08-01T11:29:37Z</time>
      </trkpt>
      <trkpt lat="49.62178" lon="4.96017">
        <ele>181.83</ele>
        <time>2019-08-01T11:29:54Z</time>
      </trkpt>
      <trkpt lat="49.62163" lon="4.96014">
        <ele>183.27</ele>
        <time>2019-08-01T11:30:07Z</time>
      </trkpt>
      <trkpt lat="49.62148" lon="4.96016">
        <ele>188.08</ele>
        <time>2019-08-01T11:30:20Z</time>
      </trkpt>
      <trkpt lat="49.62138" lon="4.96017">
        <ele>190.48</ele>
        <time>2019-08-01T11:30:29Z</time>
      </trkpt>
      <trkpt lat="49.6213" lon="4.96023">
        <ele>187.11</ele>
        <time>2019-08-01T11:30:38Z</time>
      </trkpt>
      <trkpt lat="49.62109" lon="4.96032">
        <ele>184.23</ele>
        <time>2019-08-01T11:30:57Z</time>
      </trkpt>
      <trkpt lat="49.62093" lon="4.96037">
        <ele>185.19</ele>
        <time>2019-08-01T11:31:11Z</time>
      </trkpt>
      <trkpt lat="49.62077" lon="4.96043">
        <ele>183.75</ele>
        <time>2019-08-01T11:31:27Z</time>
      </trkpt>
      <trkpt lat="49.62058" lon="4.96043">
        <ele>181.83</ele>
        <time>2019-08-01T11:31:42Z</time>
      </trkpt>
      <trkpt lat="49.6204" lon="4.96048">
        <ele>181.83</ele>
        <time>2019-08-01T11:31:57Z</time>
      </trkpt>
      <trkpt lat="49.6202" lon="4.96051">
        <ele>183.75</ele>
        <time>2019-08-01T11:32:15Z</time>
      </trkpt>
      <trkpt lat="49.62002" lon="4.96052">
        <ele>183.75</ele>
        <time>2019-08-01T11:32:32Z</time>
      </trkpt>
      <trkpt lat="49.61982" lon="4.96047">
        <ele>183.75</ele>
        <time>2019-08-01T11:32:49Z</time>
      </trkpt>
      <trkpt lat="49.61964" lon="4.96046">
        <ele>185.67</ele>
        <time>2019-08-01T11:33:06Z</time>
      </trkpt>
      <trkpt lat="49.61944" lon="4.96044">
        <ele>187.11</ele>
        <time>2019-08-01T11:33:24Z</time>
      </trkpt>
      <trkpt lat="49.61928" lon="4.96044">
        <ele>186.15</ele>
        <time>2019-08-01T11:33:39Z</time>
      </trkpt>
      <trkpt lat="49.61925" lon="4.96044">
        <ele>186.15</ele>
        <time>2019-08-01T11:33:41Z</time>
      </trkpt>
      <trkpt lat="49.61909" lon="4.96042">
        <ele>183.75</ele>
        <time>2019-08-01T11:33:55Z</time>
      </trkpt>
      <trkpt lat="49.61894" lon="4.96038">
        <ele>186.15</ele>
        <time>2019-08-01T11:34:12Z</time>
      </trkpt>
      <trkpt lat="49.61886" lon="4.96039">
        <ele>187.11</ele>
        <time>2019-08-01T11:34:21Z</time>
      </trkpt>
      <trkpt lat="49.61881" lon="4.96039">
        <ele>187.11</ele>
        <time>2019-08-01T11:34:25Z</time>
      </trkpt>
      <trkpt lat="49.6187" lon="4.96037">
        <ele>187.11</ele>
        <time>2019-08-01T11:34:35Z</time>
      </trkpt>
      <trkpt lat="49.61851" lon="4.96033">
        <ele>189.04</ele>
        <time>2019-08-01T11:34:52Z</time>
      </trkpt>
      <trkpt lat="49.61841" lon="4.96031">
        <ele>190.96</ele>
        <time>2019-08-01T11:35:02Z</time>
      </trkpt>
      <trkpt lat="49.61825" lon="4.96027">
        <ele>193.36</ele>
        <time>2019-08-01T11:35:16Z</time>
      </trkpt>
      <trkpt lat="49.61806" lon="4.9602">
        <ele>196.73</ele>
        <time>2019-08-01T11:35:33Z</time>
      </trkpt>
      <trkpt lat="49.6179" lon="4.96012">
        <ele>200.09</ele>
        <time>2019-08-01T11:35:50Z</time>
      </trkpt>
      <trkpt lat="49.61775" lon="4.96005">
        <ele>199.61</ele>
        <time>2019-08-01T11:36:04Z</time>
      </trkpt>
      <trkpt lat="49.61759" lon="4.96">
        <ele>199.61</ele>
        <time>2019-08-01T11:36:20Z</time>
      </trkpt>
      <trkpt lat="49.61742" lon="4.95993">
        <ele>199.61</ele>
        <time>2019-08-01T11:36:36Z</time>
      </trkpt>
      <trkpt lat="49.61726" lon="4.95985">
        <ele>199.13</ele>
        <time>2019-08-01T11:36:49Z</time>
      </trkpt>
      <trkpt lat="49.61714" lon="4.9598">
        <ele>197.69</ele>
        <time>2019-08-01T11:37:01Z</time>
      </trkpt>
      <trkpt lat="49.61711" lon="4.95978">
        <ele>197.69</ele>
        <time>2019-08-01T11:37:03Z</time>
      </trkpt>
      <trkpt lat="49.61708" lon="4.95977">
        <ele>197.21</ele>
        <time>2019-08-01T11:37:06Z</time>
      </trkpt>
      <trkpt lat="49.61697" lon="4.95965">
        <ele>197.21</ele>
        <time>2019-08-01T11:37:20Z</time>
      </trkpt>
      <trkpt lat="49.61689" lon="4.95953">
        <ele>199.13</ele>
        <time>2019-08-01T11:37:32Z</time>
      </trkpt>
      <trkpt lat="49.61684" lon="4.95951">
        <ele>201.05</ele>
        <time>2019-08-01T11:37:39Z</time>
      </trkpt>
      <trkpt lat="49.6167" lon="4.95944">
        <ele>203.46</ele>
        <time>2019-08-01T11:37:54Z</time>
      </trkpt>
      <trkpt lat="49.61666" lon="4.95943">
        <ele>203.94</ele>
        <time>2019-08-01T11:37:57Z</time>
      </trkpt>
      <trkpt lat="49.6165" lon="4.95935">
        <ele>205.38</ele>
        <time>2019-08-01T11:38:12Z</time>
      </trkpt>
      <trkpt lat="49.61637" lon="4.95923">
        <ele>206.34</ele>
        <time>2019-08-01T11:38:25Z</time>
      </trkpt>
      <trkpt lat="49.61628" lon="4.95914">
        <ele>207.78</ele>
        <time>2019-08-01T11:38:34Z</time>
      </trkpt>
      <trkpt lat="49.61619" lon="4.95907">
        <ele>209.7</ele>
        <time>2019-08-01T11:38:47Z</time>
      </trkpt>
      <trkpt lat="49.6161" lon="4.95902">
        <ele>210.19</ele>
        <time>2019-08-01T11:38:55Z</time>
      </trkpt>
      <trkpt lat="49.61592" lon="4.95885">
        <ele>210.67</ele>
        <time>2019-08-01T11:39:13Z</time>
      </trkpt>
      <trkpt lat="49.61574" lon="4.95874">
        <ele>206.34</ele>
        <time>2019-08-01T11:39:26Z</time>
      </trkpt>
      <trkpt lat="49.61569" lon="4.95874">
        <ele>205.86</ele>
        <time>2019-08-01T11:39:30Z</time>
      </trkpt>
      <trkpt lat="49.61563" lon="4.9587">
        <ele>205.38</ele>
        <time>2019-08-01T11:39:35Z</time>
      </trkpt>
      <trkpt lat="49.61545" lon="4.9586">
        <ele>205.38</ele>
        <time>2019-08-01T11:39:50Z</time>
      </trkpt>
      <trkpt lat="49.61529" lon="4.95849">
        <ele>203.94</ele>
        <time>2019-08-01T11:40:04Z</time>
      </trkpt>
      <trkpt lat="49.61512" lon="4.9584">
        <ele>202.49</ele>
        <time>2019-08-01T11:40:19Z</time>
      </trkpt>
      <trkpt lat="49.61496" lon="4.95833">
        <ele>197.21</ele>
        <time>2019-08-01T11:40:35Z</time>
      </trkpt>
      <trkpt lat="49.61481" lon="4.95818">
        <ele>194.8</ele>
        <time>2019-08-01T11:40:51Z</time>
      </trkpt>
      <trkpt lat="49.61466" lon="4.95808">
        <ele>192.88</ele>
        <time>2019-08-01T11:41:07Z</time>
      </trkpt>
      <trkpt lat="49.61449" lon="4.95793">
        <ele>190.48</ele>
        <time>2019-08-01T11:41:22Z</time>
      </trkpt>
      <trkpt lat="49.61442" lon="4.9579">
        <ele>189.52</ele>
        <time>2019-08-01T11:41:30Z</time>
      </trkpt>
      <trkpt lat="49.61426" lon="4.95774">
        <ele>190.48</ele>
        <time>2019-08-01T11:41:46Z</time>
      </trkpt>
      <trkpt lat="49.6142" lon="4.95771">
        <ele>191.44</ele>
        <time>2019-08-01T11:41:53Z</time>
      </trkpt>
      <trkpt lat="49.61408" lon="4.95758">
        <ele>191.92</ele>
        <time>2019-08-01T11:42:06Z</time>
      </trkpt>
      <trkpt lat="49.61393" lon="4.95749">
        <ele>193.84</ele>
        <time>2019-08-01T11:42:23Z</time>
      </trkpt>
      <trkpt lat="49.61384" lon="4.95739">
        <ele>194.32</ele>
        <time>2019-08-01T11:42:31Z</time>
      </trkpt>
      <trkpt lat="49.61374" lon="4.95732">
        <ele>195.28</ele>
        <time>2019-08-01T11:42:43Z</time>
      </trkpt>
      <trkpt lat="49.61357" lon="4.95709">
        <ele>196.73</ele>
        <time>2019-08-01T11:42:58Z</time>
      </trkpt>
      <trkpt lat="49.6135" lon="4.95694">
        <ele>198.17</ele>
        <time>2019-08-01T11:43:12Z</time>
      </trkpt>
      <trkpt lat="49.61343" lon="4.9567">
        <ele>202.01</ele>
        <time>2019-08-01T11:43:27Z</time>
      </trkpt>
      <trkpt lat="49.61334" lon="4.95643">
        <ele>205.86</ele>
        <time>2019-08-01T11:43:45Z</time>
      </trkpt>
      <trkpt lat="49.61321" lon="4.95625">
        <ele>205.38</ele>
        <time>2019-08-01T11:44:01Z</time>
      </trkpt>
      <trkpt lat="49.61308" lon="4.9561">
        <ele>204.42</ele>
        <time>2019-08-01T11:44:16Z</time>
      </trkpt>
      <trkpt lat="49.61299" lon="4.956">
        <ele>203.94</ele>
        <time>2019-08-01T11:44:30Z</time>
      </trkpt>
      <trkpt lat="49.61284" lon="4.95581">
        <ele>200.57</ele>
        <time>2019-08-01T11:44:46Z</time>
      </trkpt>
      <trkpt lat="49.6126" lon="4.95569">
        <ele>199.13</ele>
        <time>2019-08-01T11:45:03Z</time>
      </trkpt>
      <trkpt lat="49.61246" lon="4.95564">
        <ele>197.69</ele>
        <time>2019-08-01T11:45:16Z</time>
      </trkpt>
      <trkpt lat="49.61242" lon="4.95563">
        <ele>197.21</ele>
        <time>2019-08-01T11:45:20Z</time>
      </trkpt>
      <trkpt lat="49.61229" lon="4.9556">
        <ele>195.77</ele>
        <time>2019-08-01T11:45:37Z</time>
      </trkpt>
      <trkpt lat="49.61212" lon="4.95554">
        <ele>193.36</ele>
        <time>2019-08-01T11:45:52Z</time>
      </trkpt>
      <trkpt lat="49.61189" lon="4.95543">
        <ele>191.44</ele>
        <time>2019-08-01T11:46:12Z</time>
      </trkpt>
      <trkpt lat="49.61172" lon="4.95536">
        <ele>191.92</ele>
        <time>2019-08-01T11:46:28Z</time>
      </trkpt>
      <trkpt lat="49.61152" lon="4.9553">
        <ele>189.52</ele>
        <time>2019-08-01T11:46:45Z</time>
      </trkpt>
      <trkpt lat="49.61137" lon="4.95526">
        <ele>187.59</ele>
        <time>2019-08-01T11:47:01Z</time>
      </trkpt>
      <trkpt lat="49.61121" lon="4.95521">
        <ele>187.11</ele>
        <time>2019-08-01T11:47:15Z</time>
      </trkpt>
      <trkpt lat="49.61102" lon="4.9552">
        <ele>185.67</ele>
        <time>2019-08-01T11:47:30Z</time>
      </trkpt>
      <trkpt lat="49.61088" lon="4.95527">
        <ele>184.23</ele>
        <time>2019-08-01T11:47:46Z</time>
      </trkpt>
      <trkpt lat="49.61081" lon="4.9553">
        <ele>184.23</ele>
        <time>2019-08-01T11:47:53Z</time>
      </trkpt>
      <trkpt lat="49.61061" lon="4.95536">
        <ele>182.31</ele>
        <time>2019-08-01T11:48:12Z</time>
      </trkpt>
      <trkpt lat="49.61049" lon="4.9553">
        <ele>182.79</ele>
        <time>2019-08-01T11:48:26Z</time>
      </trkpt>
      <trkpt lat="49.61031" lon="4.95522">
        <ele>183.75</ele>
        <time>2019-08-01T11:48:43Z</time>
      </trkpt>
      <trkpt lat="49.61015" lon="4.95515">
        <ele>185.67</ele>
        <time>2019-08-01T11:48:57Z</time>
      </trkpt>
      <trkpt lat="49.61007" lon="4.95511">
        <ele>186.63</ele>
        <time>2019-08-01T11:49:09Z</time>
      </trkpt>
      <trkpt lat="49.61001" lon="4.95507">
        <ele>187.59</ele>
        <time>2019-08-01T11:49:13Z</time>
      </trkpt>
      <trkpt lat="49.60994" lon="4.95504">
        <ele>188.56</ele>
        <time>2019-08-01T11:49:18Z</time>
      </trkpt>
      <trkpt lat="49.60977" lon="4.95495">
        <ele>190.96</ele>
        <time>2019-08-01T11:49:35Z</time>
      </trkpt>
      <trkpt lat="49.60963" lon="4.95485">
        <ele>192.4</ele>
        <time>2019-08-01T11:49:48Z</time>
      </trkpt>
      <trkpt lat="49.60945" lon="4.95479">
        <ele>193.36</ele>
        <time>2019-08-01T11:50:06Z</time>
      </trkpt>
      <trkpt lat="49.60928" lon="4.9547">
        <ele>193.36</ele>
        <time>2019-08-01T11:50:23Z</time>
      </trkpt>
      <trkpt lat="49.6091" lon="4.95462">
        <ele>191.92</ele>
        <time>2019-08-01T11:50:40Z</time>
      </trkpt>
      <trkpt lat="49.60894" lon="4.95457">
        <ele>189.04</ele>
        <time>2019-08-01T11:50:56Z</time>
      </trkpt>
      <trkpt lat="49.60875" lon="4.95448">
        <ele>186.15</ele>
        <time>2019-08-01T11:51:13Z</time>
      </trkpt>
      <trkpt lat="49.6086" lon="4.95445">
        <ele>184.23</ele>
        <time>2019-08-01T11:51:29Z</time>
      </trkpt>
      <trkpt lat="49.60859" lon="4.95445">
        <ele>184.23</ele>
        <time>2019-08-01T11:51:30Z</time>
      </trkpt>
      <trkpt lat="49.60856" lon="4.95443">
        <ele>185.19</ele>
        <time>2019-08-01T11:51:45Z</time>
      </trkpt>
      <trkpt lat="49.6085" lon="4.95439">
        <ele>186.63</ele>
        <time>2019-08-01T11:51:57Z</time>
      </trkpt>
      <trkpt lat="49.60834" lon="4.95427">
        <ele>188.08</ele>
        <time>2019-08-01T11:52:12Z</time>
      </trkpt>
      <trkpt lat="49.60815" lon="4.95417">
        <ele>187.59</ele>
        <time>2019-08-01T11:52:28Z</time>
      </trkpt>
      <trkpt lat="49.608" lon="4.95413">
        <ele>185.67</ele>
        <time>2019-08-01T11:52:44Z</time>
      </trkpt>
      <trkpt lat="49.60784" lon="4.95408">
        <ele>183.27</ele>
        <time>2019-08-01T11:52:59Z</time>
      </trkpt>
      <trkpt lat="49.60784" lon="4.95408">
        <ele>183.75</ele>
        <time>2019-08-01T11:53:00Z</time>
      </trkpt>
      <trkpt lat="49.60782" lon="4.95407">
        <ele>184.23</ele>
        <time>2019-08-01T11:53:02Z</time>
      </trkpt>
      <trkpt lat="49.60764" lon="4.95405">
        <ele>182.79</ele>
        <time>2019-08-01T11:53:17Z</time>
      </trkpt>
      <trkpt lat="49.6075" lon="4.95407">
        <ele>181.83</ele>
        <time>2019-08-01T11:53:30Z</time>
      </trkpt>
      <trkpt lat="49.60732" lon="4.95409">
        <ele>181.83</ele>
        <time>2019-08-01T11:53:45Z</time>
      </trkpt>
      <trkpt lat="49.60714" lon="4.95412">
        <ele>183.27</ele>
        <time>2019-08-01T11:54:00Z</time>
      </trkpt>
      <trkpt lat="49.60697" lon="4.95417">
        <ele>185.67</ele>
        <time>2019-08-01T11:54:15Z</time>
      </trkpt>
      <trkpt lat="49.60682" lon="4.9542">
        <ele>188.08</ele>
        <time>2019-08-01T11:54:31Z</time>
      </trkpt>
      <trkpt lat="49.60663" lon="4.95425">
        <ele>190.48</ele>
        <time>2019-08-01T11:54:45Z</time>
      </trkpt>
      <trkpt lat="49.60647" lon="4.95426">
        <ele>191.92</ele>
        <time>2019-08-01T11:54:59Z</time>
      </trkpt>
      <trkpt lat="49.60633" lon="4.9543">
        <ele>191.44</ele>
        <time>2019-08-01T11:55:13Z</time>
      </trkpt>
      <trkpt lat="49.60632" lon="4.9543">
        <ele>190.96</ele>
        <time>2019-08-01T11:55:16Z</time>
      </trkpt>
      <trkpt lat="49.60629" lon="4.9543">
        <ele>190.96</ele>
        <time>2019-08-01T11:55:18Z</time>
      </trkpt>
      <trkpt lat="49.60614" lon="4.95434">
        <ele>190</ele>
        <time>2019-08-01T11:55:32Z</time>
      </trkpt>
      <trkpt lat="49.60604" lon="4.95436">
        <ele>190</ele>
        <time>2019-08-01T11:55:43Z</time>
      </trkpt>
      <trkpt lat="49.60597" lon="4.95438">
        <ele>190.48</ele>
        <time>2019-08-01T11:55:51Z</time>
      </trkpt>
      <trkpt lat="49.6058" lon="4.9544">
        <ele>192.4</ele>
        <time>2019-08-01T11:56:06Z</time>
      </trkpt>
      <trkpt lat="49.60566" lon="4.95443">
        <ele>195.28</ele>
        <time>2019-08-01T11:56:21Z</time>
      </trkpt>
      <trkpt lat="49.60553" lon="4.95447">
        <ele>193.84</ele>
        <time>2019-08-01T11:56:33Z</time>
      </trkpt>
      <trkpt lat="49.60547" lon="4.95449">
        <ele>192.4</ele>
        <time>2019-08-01T11:56:46Z</time>
      </trkpt>
      <trkpt lat="49.60546" lon="4.95449">
        <ele>192.4</ele>
        <time>2019-08-01T11:56:47Z</time>
      </trkpt>
      <trkpt lat="49.60538" lon="4.95451">
        <ele>192.88</ele>
        <time>2019-08-01T11:56:56Z</time>
      </trkpt>
      <trkpt lat="49.60532" lon="4.95445">
        <ele>195.28</ele>
        <time>2019-08-01T11:57:10Z</time>
      </trkpt>
      <trkpt lat="49.60532" lon="4.95446">
        <ele>195.28</ele>
        <time>2019-08-01T11:57:14Z</time>
      </trkpt>
      <trkpt lat="49.60529" lon="4.95425">
        <ele>196.73</ele>
        <time>2019-08-01T11:57:27Z</time>
      </trkpt>
      <trkpt lat="49.60523" lon="4.95409">
        <ele>201.05</ele>
        <time>2019-08-01T11:57:40Z</time>
      </trkpt>
      <trkpt lat="49.60518" lon="4.95392">
        <ele>201.05</ele>
        <time>2019-08-01T11:57:52Z</time>
      </trkpt>
      <trkpt lat="49.60512" lon="4.95376">
        <ele>202.01</ele>
        <time>2019-08-01T11:58:04Z</time>
      </trkpt>
      <trkpt lat="49.60506" lon="4.9536">
        <ele>204.42</ele>
        <time>2019-08-01T11:58:16Z</time>
      </trkpt>
      <trkpt lat="49.605" lon="4.95347">
        <ele>205.38</ele>
        <time>2019-08-01T11:58:27Z</time>
      </trkpt>
      <trkpt lat="49.60497" lon="4.95337">
        <ele>205.86</ele>
        <time>2019-08-01T11:58:34Z</time>
      </trkpt>
      <trkpt lat="49.60488" lon="4.95321">
        <ele>207.78</ele>
        <time>2019-08-01T11:58:47Z</time>
      </trkpt>
      <trkpt lat="49.6048" lon="4.95306">
        <ele>209.22</ele>
        <time>2019-08-01T11:58:59Z</time>
      </trkpt>
      <trkpt lat="49.60473" lon="4.95292">
        <ele>211.15</ele>
        <time>2019-08-01T11:59:11Z</time>
      </trkpt>
      <trkpt lat="49.60464" lon="4.95278">
        <ele>214.03</ele>
        <time>2019-08-01T11:59:24Z</time>
      </trkpt>
      <trkpt lat="49.60455" lon="4.95267">
        <ele>215.47</ele>
        <time>2019-08-01T11:59:36Z</time>
      </trkpt>
      <trkpt lat="49.60446" lon="4.95254">
        <ele>217.88</ele>
        <time>2019-08-01T11:59:47Z</time>
      </trkpt>
      <trkpt lat="49.60436" lon="4.95239">
        <ele>219.8</ele>
        <time>2019-08-01T12:00:00Z</time>
      </trkpt>
      <trkpt lat="49.60427" lon="4.95228">
        <ele>221.24</ele>
        <time>2019-08-01T12:00:12Z</time>
      </trkpt>
      <trkpt lat="49.60418" lon="4.95215">
        <ele>223.16</ele>
        <time>2019-08-01T12:00:24Z</time>
      </trkpt>
      <trkpt lat="49.6041" lon="4.95201">
        <ele>225.57</ele>
        <time>2019-08-01T12:00:36Z</time>
      </trkpt>
      <trkpt lat="49.60402" lon="4.95187">
        <ele>227.01</ele>
        <time>2019-08-01T12:00:49Z</time>
      </trkpt>
      <trkpt lat="49.60395" lon="4.95171">
        <ele>228.93</ele>
        <time>2019-08-01T12:01:01Z</time>
      </trkpt>
      <trkpt lat="49.6039" lon="4.95156">
        <ele>229.89</ele>
        <time>2019-08-01T12:01:12Z</time>
      </trkpt>
      <trkpt lat="49.60386" lon="4.95139">
        <ele>230.85</ele>
        <time>2019-08-01T12:01:25Z</time>
      </trkpt>
      <trkpt lat="49.60384" lon="4.9513">
        <ele>231.33</ele>
        <time>2019-08-01T12:01:36Z</time>
      </trkpt>
      <trkpt lat="49.60384" lon="4.9513">
        <ele>229.89</ele>
        <time>2019-08-01T12:01:57Z</time>
      </trkpt>
      <trkpt lat="49.60383" lon="4.95118">
        <ele>231.81</ele>
        <time>2019-08-01T12:02:08Z</time>
      </trkpt>
      <trkpt lat="49.60381" lon="4.95101">
        <ele>233.26</ele>
        <time>2019-08-01T12:02:19Z</time>
      </trkpt>
      <trkpt lat="49.60378" lon="4.95081">
        <ele>235.18</ele>
        <time>2019-08-01T12:02:31Z</time>
      </trkpt>
      <trkpt lat="49.60375" lon="4.95064">
        <ele>236.62</ele>
        <time>2019-08-01T12:02:42Z</time>
      </trkpt>
      <trkpt lat="49.60372" lon="4.9505">
        <ele>238.06</ele>
        <time>2019-08-01T12:02:53Z</time>
      </trkpt>
      <trkpt lat="49.60369" lon="4.95031">
        <ele>239.99</ele>
        <time>2019-08-01T12:03:04Z</time>
      </trkpt>
      <trkpt lat="49.60367" lon="4.95014">
        <ele>241.91</ele>
        <time>2019-08-01T12:03:16Z</time>
      </trkpt>
      <trkpt lat="49.60365" lon="4.94996">
        <ele>243.35</ele>
        <time>2019-08-01T12:03:28Z</time>
      </trkpt>
      <trkpt lat="49.60362" lon="4.94979">
        <ele>244.79</ele>
        <time>2019-08-01T12:03:39Z</time>
      </trkpt>
      <trkpt lat="49.60359" lon="4.94962">
        <ele>245.75</ele>
        <time>2019-08-01T12:03:51Z</time>
      </trkpt>
      <trkpt lat="49.60358" lon="4.94958">
        <ele>245.75</ele>
        <time>2019-08-01T12:03:55Z</time>
      </trkpt>
      <trkpt lat="49.60355" lon="4.94939">
        <ele>246.72</ele>
        <time>2019-08-01T12:04:08Z</time>
      </trkpt>
      <trkpt lat="49.60352" lon="4.94925">
        <ele>248.64</ele>
        <time>2019-08-01T12:04:18Z</time>
      </trkpt>
      <trkpt lat="49.60349" lon="4.94906">
        <ele>251.04</ele>
        <time>2019-08-01T12:04:30Z</time>
      </trkpt>
      <trkpt lat="49.60347" lon="4.94888">
        <ele>252.48</ele>
        <time>2019-08-01T12:04:41Z</time>
      </trkpt>
      <trkpt lat="49.60345" lon="4.94879">
        <ele>253.93</ele>
        <time>2019-08-01T12:04:52Z</time>
      </trkpt>
      <trkpt lat="49.60343" lon="4.94871">
        <ele>253.44</ele>
        <time>2019-08-01T12:05:09Z</time>
      </trkpt>
      <trkpt lat="49.60339" lon="4.94853">
        <ele>254.41</ele>
        <time>2019-08-01T12:05:20Z</time>
      </trkpt>
      <trkpt lat="49.60334" lon="4.94839">
        <ele>254.41</ele>
        <time>2019-08-01T12:05:31Z</time>
      </trkpt>
      <trkpt lat="49.60329" lon="4.94822">
        <ele>255.37</ele>
        <time>2019-08-01T12:05:42Z</time>
      </trkpt>
      <trkpt lat="49.60325" lon="4.94807">
        <ele>257.29</ele>
        <time>2019-08-01T12:05:53Z</time>
      </trkpt>
      <trkpt lat="49.60321" lon="4.94793">
        <ele>258.73</ele>
        <time>2019-08-01T12:06:03Z</time>
      </trkpt>
      <trkpt lat="49.60316" lon="4.94778">
        <ele>261.62</ele>
        <time>2019-08-01T12:06:14Z</time>
      </trkpt>
      <trkpt lat="49.60315" lon="4.94777">
        <ele>261.62</ele>
        <time>2019-08-01T12:06:15Z</time>
      </trkpt>
      <trkpt lat="49.60308" lon="4.94757">
        <ele>263.54</ele>
        <time>2019-08-01T12:06:28Z</time>
      </trkpt>
      <trkpt lat="49.60304" lon="4.94737">
        <ele>263.54</ele>
        <time>2019-08-01T12:06:41Z</time>
      </trkpt>
      <trkpt lat="49.60301" lon="4.94721">
        <ele>263.54</ele>
        <time>2019-08-01T12:06:53Z</time>
      </trkpt>
      <trkpt lat="49.60298" lon="4.94702">
        <ele>264.98</ele>
        <time>2019-08-01T12:07:04Z</time>
      </trkpt>
      <trkpt lat="49.60295" lon="4.94686">
        <ele>266.42</ele>
        <time>2019-08-01T12:07:15Z</time>
      </trkpt>
      <trkpt lat="49.6029" lon="4.94664">
        <ele>268.35</ele>
        <time>2019-08-01T12:07:27Z</time>
      </trkpt>
      <trkpt lat="49.60288" lon="4.94652">
        <ele>268.35</ele>
        <time>2019-08-01T12:07:35Z</time>
      </trkpt>
      <trkpt lat="49.60286" lon="4.94648">
        <ele>267.86</ele>
        <time>2019-08-01T12:07:39Z</time>
      </trkpt>
      <trkpt lat="49.60282" lon="4.94626">
        <ele>269.31</ele>
        <time>2019-08-01T12:07:52Z</time>
      </trkpt>
      <trkpt lat="49.60278" lon="4.9461">
        <ele>269.79</ele>
        <time>2019-08-01T12:08:04Z</time>
      </trkpt>
      <trkpt lat="49.60273" lon="4.94592">
        <ele>270.75</ele>
        <time>2019-08-01T12:08:15Z</time>
      </trkpt>
      <trkpt lat="49.60269" lon="4.94575">
        <ele>272.19</ele>
        <time>2019-08-01T12:08:27Z</time>
      </trkpt>
      <trkpt lat="49.60265" lon="4.94559">
        <ele>272.67</ele>
        <time>2019-08-01T12:08:38Z</time>
      </trkpt>
      <trkpt lat="49.60263" lon="4.94537">
        <ele>273.15</ele>
        <time>2019-08-01T12:08:50Z</time>
      </trkpt>
      <trkpt lat="49.60261" lon="4.94519">
        <ele>274.11</ele>
        <time>2019-08-01T12:09:02Z</time>
      </trkpt>
      <trkpt lat="49.60259" lon="4.94506">
        <ele>274.59</ele>
        <time>2019-08-01T12:09:14Z</time>
      </trkpt>
      <trkpt lat="49.60257" lon="4.94507">
        <ele>274.11</ele>
        <time>2019-08-01T12:09:30Z</time>
      </trkpt>
      <trkpt lat="49.60254" lon="4.94509">
        <ele>273.63</ele>
        <time>2019-08-01T12:09:41Z</time>
      </trkpt>
      <trkpt lat="49.60242" lon="4.94514">
        <ele>272.67</ele>
        <time>2019-08-01T12:09:56Z</time>
      </trkpt>
      <trkpt lat="49.60242" lon="4.94511">
        <ele>271.71</ele>
        <time>2019-08-01T12:10:11Z</time>
      </trkpt>
      <trkpt lat="49.60242" lon="4.94511">
        <ele>271.71</ele>
        <time>2019-08-01T12:10:26Z</time>
      </trkpt>
      <trkpt lat="49.60242" lon="4.94512">
        <ele>271.71</ele>
        <time>2019-08-01T12:10:48Z</time>
      </trkpt>
      <trkpt lat="49.60242" lon="4.94511">
        <ele>271.23</ele>
        <time>2019-08-01T12:11:04Z</time>
      </trkpt>
      <trkpt lat="49.60246" lon="4.94506">
        <ele>286.61</ele>
        <time>2019-08-01T12:11:27Z</time>
      </trkpt>
      <trkpt lat="49.60244" lon="4.94511">
        <ele>274.59</ele>
        <time>2019-08-01T12:11:45Z</time>
      </trkpt>
      <trkpt lat="49.60243" lon="4.9451">
        <ele>271.71</ele>
        <time>2019-08-01T12:12:02Z</time>
      </trkpt>
      <trkpt lat="49.60243" lon="4.94512">
        <ele>271.71</ele>
        <time>2019-08-01T12:12:22Z</time>
      </trkpt>
      <trkpt lat="49.60241" lon="4.94515">
        <ele>272.19</ele>
        <time>2019-08-01T12:12:35Z</time>
      </trkpt>
      <trkpt lat="49.6023" lon="4.94526">
        <ele>273.15</ele>
        <time>2019-08-01T12:12:49Z</time>
      </trkpt>
      <trkpt lat="49.60218" lon="4.94547">
        <ele>274.11</ele>
        <time>2019-08-01T12:13:05Z</time>
      </trkpt>
      <trkpt lat="49.60214" lon="4.94566">
        <ele>273.15</ele>
        <time>2019-08-01T12:13:19Z</time>
      </trkpt>
      <trkpt lat="49.60211" lon="4.94587">
        <ele>273.15</ele>
        <time>2019-08-01T12:13:34Z</time>
      </trkpt>
      <trkpt lat="49.60211" lon="4.94592">
        <ele>273.63</ele>
        <time>2019-08-01T12:13:37Z</time>
      </trkpt>
      <trkpt lat="49.60209" lon="4.94605">
        <ele>273.63</ele>
        <time>2019-08-01T12:13:44Z</time>
      </trkpt>
      <trkpt lat="49.60207" lon="4.9461">
        <ele>274.59</ele>
        <time>2019-08-01T12:13:47Z</time>
      </trkpt>
      <trkpt lat="49.60207" lon="4.94631">
        <ele>273.15</ele>
        <time>2019-08-01T12:14:03Z</time>
      </trkpt>
      <trkpt lat="49.60207" lon="4.94633">
        <ele>273.15</ele>
        <time>2019-08-01T12:14:04Z</time>
      </trkpt>
      <trkpt lat="49.60202" lon="4.94659">
        <ele>274.11</ele>
        <time>2019-08-01T12:14:18Z</time>
      </trkpt>
      <trkpt lat="49.60202" lon="4.94676">
        <ele>278.92</ele>
        <time>2019-08-01T12:14:33Z</time>
      </trkpt>
      <trkpt lat="49.60199" lon="4.94692">
        <ele>278.92</ele>
        <time>2019-08-01T12:14:45Z</time>
      </trkpt>
      <trkpt lat="49.60191" lon="4.94719">
        <ele>278.92</ele>
        <time>2019-08-01T12:15:02Z</time>
      </trkpt>
      <trkpt lat="49.60186" lon="4.94739">
        <ele>278.44</ele>
        <time>2019-08-01T12:15:17Z</time>
      </trkpt>
      <trkpt lat="49.60184" lon="4.94747">
        <ele>278.92</ele>
        <time>2019-08-01T12:15:22Z</time>
      </trkpt>
      <trkpt lat="49.60181" lon="4.94776">
        <ele>281.32</ele>
        <time>2019-08-01T12:15:39Z</time>
      </trkpt>
      <trkpt lat="49.60179" lon="4.94801">
        <ele>283.73</ele>
        <time>2019-08-01T12:15:54Z</time>
      </trkpt>
      <trkpt lat="49.60176" lon="4.94815">
        <ele>285.17</ele>
        <time>2019-08-01T12:16:03Z</time>
      </trkpt>
      <trkpt lat="49.6017" lon="4.9484">
        <ele>282.77</ele>
        <time>2019-08-01T12:16:16Z</time>
      </trkpt>
      <trkpt lat="49.60163" lon="4.94858">
        <ele>280.84</ele>
        <time>2019-08-01T12:16:26Z</time>
      </trkpt>
      <trkpt lat="49.60161" lon="4.94866">
        <ele>280.36</ele>
        <time>2019-08-01T12:16:31Z</time>
      </trkpt>
      <trkpt lat="49.60157" lon="4.94881">
        <ele>278.44</ele>
        <time>2019-08-01T12:16:43Z</time>
      </trkpt>
      <trkpt lat="49.60151" lon="4.94899">
        <ele>276.04</ele>
        <time>2019-08-01T12:16:59Z</time>
      </trkpt>
      <trkpt lat="49.60146" lon="4.94921">
        <ele>276.52</ele>
        <time>2019-08-01T12:17:17Z</time>
      </trkpt>
      <trkpt lat="49.60145" lon="4.94932">
        <ele>277.96</ele>
        <time>2019-08-01T12:17:23Z</time>
      </trkpt>
      <trkpt lat="49.60142" lon="4.94943">
        <ele>279.4</ele>
        <time>2019-08-01T12:17:30Z</time>
      </trkpt>
      <trkpt lat="49.60138" lon="4.94965">
        <ele>280.84</ele>
        <time>2019-08-01T12:17:46Z</time>
      </trkpt>
      <trkpt lat="49.60134" lon="4.94993">
        <ele>281.8</ele>
        <time>2019-08-01T12:18:03Z</time>
      </trkpt>
      <trkpt lat="49.60131" lon="4.95018">
        <ele>281.8</ele>
        <time>2019-08-01T12:18:15Z</time>
      </trkpt>
      <trkpt lat="49.60125" lon="4.95032">
        <ele>282.28</ele>
        <time>2019-08-01T12:18:21Z</time>
      </trkpt>
      <trkpt lat="49.60122" lon="4.95043">
        <ele>281.32</ele>
        <time>2019-08-01T12:18:28Z</time>
      </trkpt>
      <trkpt lat="49.60121" lon="4.95046">
        <ele>280.84</ele>
        <time>2019-08-01T12:18:30Z</time>
      </trkpt>
      <trkpt lat="49.60118" lon="4.95067">
        <ele>277.96</ele>
        <time>2019-08-01T12:18:45Z</time>
      </trkpt>
      <trkpt lat="49.60113" lon="4.95085">
        <ele>279.4</ele>
        <time>2019-08-01T12:18:57Z</time>
      </trkpt>
      <trkpt lat="49.60101" lon="4.95103">
        <ele>281.32</ele>
        <time>2019-08-01T12:19:11Z</time>
      </trkpt>
      <trkpt lat="49.60095" lon="4.9512">
        <ele>281.8</ele>
        <time>2019-08-01T12:19:25Z</time>
      </trkpt>
      <trkpt lat="49.60085" lon="4.95144">
        <ele>280.36</ele>
        <time>2019-08-01T12:19:44Z</time>
      </trkpt>
      <trkpt lat="49.60081" lon="4.9515">
        <ele>279.4</ele>
        <time>2019-08-01T12:19:50Z</time>
      </trkpt>
      <trkpt lat="49.60066" lon="4.95166">
        <ele>275.07</ele>
        <time>2019-08-01T12:20:02Z</time>
      </trkpt>
      <trkpt lat="49.60057" lon="4.95178">
        <ele>268.83</ele>
        <time>2019-08-01T12:20:17Z</time>
      </trkpt>
      <trkpt lat="49.60038" lon="4.95184">
        <ele>262.58</ele>
        <time>2019-08-01T12:20:34Z</time>
      </trkpt>
      <trkpt lat="49.60019" lon="4.95187">
        <ele>256.81</ele>
        <time>2019-08-01T12:20:48Z</time>
      </trkpt>
      <trkpt lat="49.60008" lon="4.95187">
        <ele>252</ele>
        <time>2019-08-01T12:21:04Z</time>
      </trkpt>
      <trkpt lat="49.59997" lon="4.95183">
        <ele>250.08</ele>
        <time>2019-08-01T12:21:20Z</time>
      </trkpt>
      <trkpt lat="49.59992" lon="4.95183">
        <ele>249.12</ele>
        <time>2019-08-01T12:21:25Z</time>
      </trkpt>
      <trkpt lat="49.59978" lon="4.9518">
        <ele>242.87</ele>
        <time>2019-08-01T12:21:39Z</time>
      </trkpt>
      <trkpt lat="49.59968" lon="4.95176">
        <ele>240.47</ele>
        <time>2019-08-01T12:21:56Z</time>
      </trkpt>
      <trkpt lat="49.59957" lon="4.9517">
        <ele>239.99</ele>
        <time>2019-08-01T12:22:06Z</time>
      </trkpt>
      <trkpt lat="49.59939" lon="4.95162">
        <ele>239.02</ele>
        <time>2019-08-01T12:22:22Z</time>
      </trkpt>
      <trkpt lat="49.59918" lon="4.95164">
        <ele>238.54</ele>
        <time>2019-08-01T12:22:38Z</time>
      </trkpt>
      <trkpt lat="49.59898" lon="4.95163">
        <ele>237.1</ele>
        <time>2019-08-01T12:22:57Z</time>
      </trkpt>
      <trkpt lat="49.59886" lon="4.95163">
        <ele>232.78</ele>
        <time>2019-08-01T12:23:11Z</time>
      </trkpt>
      <trkpt lat="49.59875" lon="4.95166">
        <ele>230.85</ele>
        <time>2019-08-01T12:23:23Z</time>
      </trkpt>
      <trkpt lat="49.59864" lon="4.95172">
        <ele>233.74</ele>
        <time>2019-08-01T12:23:42Z</time>
      </trkpt>
      <trkpt lat="49.59853" lon="4.95179">
        <ele>233.74</ele>
        <time>2019-08-01T12:23:57Z</time>
      </trkpt>
      <trkpt lat="49.5983" lon="4.95196">
        <ele>238.06</ele>
        <time>2019-08-01T12:24:14Z</time>
      </trkpt>
      <trkpt lat="49.59823" lon="4.95199">
        <ele>240.47</ele>
        <time>2019-08-01T12:24:18Z</time>
      </trkpt>
      <trkpt lat="49.598" lon="4.95216">
        <ele>238.06</ele>
        <time>2019-08-01T12:24:38Z</time>
      </trkpt>
      <trkpt lat="49.59783" lon="4.95233">
        <ele>239.51</ele>
        <time>2019-08-01T12:24:58Z</time>
      </trkpt>
      <trkpt lat="49.59767" lon="4.95246">
        <ele>236.14</ele>
        <time>2019-08-01T12:25:13Z</time>
      </trkpt>
      <trkpt lat="49.5975" lon="4.95263">
        <ele>232.78</ele>
        <time>2019-08-01T12:25:32Z</time>
      </trkpt>
      <trkpt lat="49.59732" lon="4.95277">
        <ele>228.45</ele>
        <time>2019-08-01T12:25:46Z</time>
      </trkpt>
      <trkpt lat="49.59722" lon="4.95287">
        <ele>224.12</ele>
        <time>2019-08-01T12:26:02Z</time>
      </trkpt>
      <trkpt lat="49.5972" lon="4.95287">
        <ele>224.12</ele>
        <time>2019-08-01T12:26:05Z</time>
      </trkpt>
      <trkpt lat="49.59711" lon="4.95293">
        <ele>223.16</ele>
        <time>2019-08-01T12:26:15Z</time>
      </trkpt>
      <trkpt lat="49.59706" lon="4.95296">
        <ele>223.16</ele>
        <time>2019-08-01T12:26:21Z</time>
      </trkpt>
      <trkpt lat="49.59693" lon="4.95308">
        <ele>220.28</ele>
        <time>2019-08-01T12:26:37Z</time>
      </trkpt>
      <trkpt lat="49.59686" lon="4.95311">
        <ele>220.28</ele>
        <time>2019-08-01T12:26:44Z</time>
      </trkpt>
      <trkpt lat="49.59672" lon="4.95321">
        <ele>221.72</ele>
        <time>2019-08-01T12:26:59Z</time>
      </trkpt>
      <trkpt lat="49.59669" lon="4.95324">
        <ele>222.68</ele>
        <time>2019-08-01T12:27:02Z</time>
      </trkpt>
      <trkpt lat="49.59657" lon="4.95336">
        <ele>222.68</ele>
        <time>2019-08-01T12:27:17Z</time>
      </trkpt>
      <trkpt lat="49.59654" lon="4.95337">
        <ele>222.2</ele>
        <time>2019-08-01T12:27:21Z</time>
      </trkpt>
      <trkpt lat="49.59636" lon="4.95347">
        <ele>221.72</ele>
        <time>2019-08-01T12:27:36Z</time>
      </trkpt>
      <trkpt lat="49.59621" lon="4.95357">
        <ele>221.24</ele>
        <time>2019-08-01T12:27:51Z</time>
      </trkpt>
      <trkpt lat="49.59603" lon="4.95368">
        <ele>222.2</ele>
        <time>2019-08-01T12:28:07Z</time>
      </trkpt>
      <trkpt lat="49.59597" lon="4.95371">
        <ele>221.72</ele>
        <time>2019-08-01T12:28:16Z</time>
      </trkpt>
      <trkpt lat="49.59589" lon="4.95374">
        <ele>221.72</ele>
        <time>2019-08-01T12:28:22Z</time>
      </trkpt>
      <trkpt lat="49.59576" lon="4.95381">
        <ele>221.72</ele>
        <time>2019-08-01T12:28:35Z</time>
      </trkpt>
      <trkpt lat="49.59562" lon="4.95388">
        <ele>220.28</ele>
        <time>2019-08-01T12:28:49Z</time>
      </trkpt>
      <trkpt lat="49.59557" lon="4.9539">
        <ele>220.76</ele>
        <time>2019-08-01T12:28:53Z</time>
      </trkpt>
      <trkpt lat="49.59544" lon="4.95398">
        <ele>218.84</ele>
        <time>2019-08-01T12:29:10Z</time>
      </trkpt>
      <trkpt lat="49.59538" lon="4.95402">
        <ele>218.36</ele>
        <time>2019-08-01T12:29:16Z</time>
      </trkpt>
      <trkpt lat="49.59534" lon="4.95409">
        <ele>217.88</ele>
        <time>2019-08-01T12:29:21Z</time>
      </trkpt>
      <trkpt lat="49.59533" lon="4.95415">
        <ele>216.91</ele>
        <time>2019-08-01T12:29:25Z</time>
      </trkpt>
      <trkpt lat="49.59547" lon="4.9543">
        <ele>212.59</ele>
        <time>2019-08-01T12:29:40Z</time>
      </trkpt>
      <trkpt lat="49.59563" lon="4.95431">
        <ele>211.15</ele>
        <time>2019-08-01T12:29:59Z</time>
      </trkpt>
      <trkpt lat="49.59587" lon="4.95434">
        <ele>210.67</ele>
        <time>2019-08-01T12:30:17Z</time>
      </trkpt>
      <trkpt lat="49.59603" lon="4.95435">
        <ele>206.34</ele>
        <time>2019-08-01T12:30:35Z</time>
      </trkpt>
      <trkpt lat="49.59606" lon="4.95436">
        <ele>205.38</ele>
        <time>2019-08-01T12:30:39Z</time>
      </trkpt>
      <trkpt lat="49.59628" lon="4.95448">
        <ele>202.98</ele>
        <time>2019-08-01T12:31:00Z</time>
      </trkpt>
      <trkpt lat="49.59639" lon="4.95451">
        <ele>201.53</ele>
        <time>2019-08-01T12:31:08Z</time>
      </trkpt>
      <trkpt lat="49.59656" lon="4.95453">
        <ele>202.01</ele>
        <time>2019-08-01T12:31:25Z</time>
      </trkpt>
      <trkpt lat="49.59675" lon="4.95453">
        <ele>201.53</ele>
        <time>2019-08-01T12:31:43Z</time>
      </trkpt>
      <trkpt lat="49.59693" lon="4.95453">
        <ele>202.49</ele>
        <time>2019-08-01T12:32:00Z</time>
      </trkpt>
      <trkpt lat="49.59705" lon="4.95454">
        <ele>202.49</ele>
        <time>2019-08-01T12:32:11Z</time>
      </trkpt>
      <trkpt lat="49.59721" lon="4.95456">
        <ele>201.53</ele>
        <time>2019-08-01T12:32:27Z</time>
      </trkpt>
      <trkpt lat="49.5973" lon="4.95456">
        <ele>200.09</ele>
        <time>2019-08-01T12:32:34Z</time>
      </trkpt>
      <trkpt lat="49.59736" lon="4.95458">
        <ele>200.09</ele>
        <time>2019-08-01T12:32:38Z</time>
      </trkpt>
      <trkpt lat="49.59755" lon="4.95458">
        <ele>196.25</ele>
        <time>2019-08-01T12:32:58Z</time>
      </trkpt>
      <trkpt lat="49.59776" lon="4.95461">
        <ele>196.25</ele>
        <time>2019-08-01T12:33:14Z</time>
      </trkpt>
      <trkpt lat="49.59793" lon="4.95461">
        <ele>193.36</ele>
        <time>2019-08-01T12:33:34Z</time>
      </trkpt>
      <trkpt lat="49.59813" lon="4.95465">
        <ele>192.88</ele>
        <time>2019-08-01T12:33:52Z</time>
      </trkpt>
      <trkpt lat="49.59834" lon="4.95467">
        <ele>192.4</ele>
        <time>2019-08-01T12:34:09Z</time>
      </trkpt>
      <trkpt lat="49.59842" lon="4.95467">
        <ele>191.92</ele>
        <time>2019-08-01T12:34:19Z</time>
      </trkpt>
      <trkpt lat="49.59862" lon="4.95476">
        <ele>193.36</ele>
        <time>2019-08-01T12:34:35Z</time>
      </trkpt>
      <trkpt lat="49.59877" lon="4.95491">
        <ele>191.44</ele>
        <time>2019-08-01T12:34:53Z</time>
      </trkpt>
      <trkpt lat="49.59892" lon="4.95511">
        <ele>190</ele>
        <time>2019-08-01T12:35:08Z</time>
      </trkpt>
      <trkpt lat="49.59903" lon="4.95527">
        <ele>188.08</ele>
        <time>2019-08-01T12:35:26Z</time>
      </trkpt>
      <trkpt lat="49.59917" lon="4.95553">
        <ele>189.52</ele>
        <time>2019-08-01T12:35:43Z</time>
      </trkpt>
      <trkpt lat="49.5993" lon="4.95581">
        <ele>192.4</ele>
        <time>2019-08-01T12:35:58Z</time>
      </trkpt>
      <trkpt lat="49.59933" lon="4.95584">
        <ele>193.36</ele>
        <time>2019-08-01T12:36:01Z</time>
      </trkpt>
      <trkpt lat="49.59944" lon="4.95595">
        <ele>189.52</ele>
        <time>2019-08-01T12:36:19Z</time>
      </trkpt>
      <trkpt lat="49.59957" lon="4.95619">
        <ele>190.96</ele>
        <time>2019-08-01T12:36:37Z</time>
      </trkpt>
      <trkpt lat="49.59974" lon="4.95641">
        <ele>191.92</ele>
        <time>2019-08-01T12:36:53Z</time>
      </trkpt>
      <trkpt lat="49.5999" lon="4.95663">
        <ele>193.84</ele>
        <time>2019-08-01T12:37:16Z</time>
      </trkpt>
      <trkpt lat="49.60003" lon="4.95682">
        <ele>192.4</ele>
        <time>2019-08-01T12:37:32Z</time>
      </trkpt>
      <trkpt lat="49.60004" lon="4.95689">
        <ele>191.92</ele>
        <time>2019-08-01T12:37:36Z</time>
      </trkpt>
      <trkpt lat="49.60005" lon="4.95693">
        <ele>191.92</ele>
        <time>2019-08-01T12:37:38Z</time>
      </trkpt>
      <trkpt lat="49.60006" lon="4.95701">
        <ele>191.92</ele>
        <time>2019-08-01T12:37:42Z</time>
      </trkpt>
      <trkpt lat="49.60006" lon="4.95708">
        <ele>191.92</ele>
        <time>2019-08-01T12:37:52Z</time>
      </trkpt>
      <trkpt lat="49.59991" lon="4.95716">
        <ele>189.04</ele>
        <time>2019-08-01T12:38:06Z</time>
      </trkpt>
      <trkpt lat="49.59986" lon="4.95713">
        <ele>189.04</ele>
        <time>2019-08-01T12:38:12Z</time>
      </trkpt>
      <trkpt lat="49.59963" lon="4.9571">
        <ele>190.48</ele>
        <time>2019-08-01T12:38:29Z</time>
      </trkpt>
      <trkpt lat="49.5995" lon="4.95714">
        <ele>190.48</ele>
        <time>2019-08-01T12:38:41Z</time>
      </trkpt>
      <trkpt lat="49.59936" lon="4.95718">
        <ele>191.92</ele>
        <time>2019-08-01T12:38:57Z</time>
      </trkpt>
      <trkpt lat="49.59915" lon="4.95725">
        <ele>195.28</ele>
        <time>2019-08-01T12:39:15Z</time>
      </trkpt>
      <trkpt lat="49.59896" lon="4.95731">
        <ele>193.84</ele>
        <time>2019-08-01T12:39:33Z</time>
      </trkpt>
      <trkpt lat="49.59878" lon="4.95739">
        <ele>193.36</ele>
        <time>2019-08-01T12:39:47Z</time>
      </trkpt>
      <trkpt lat="49.59863" lon="4.95741">
        <ele>191.44</ele>
        <time>2019-08-01T12:40:01Z</time>
      </trkpt>
      <trkpt lat="49.59848" lon="4.95746">
        <ele>191.92</ele>
        <time>2019-08-01T12:40:16Z</time>
      </trkpt>
      <trkpt lat="49.59831" lon="4.95751">
        <ele>191.44</ele>
        <time>2019-08-01T12:40:29Z</time>
      </trkpt>
      <trkpt lat="49.5983" lon="4.95754">
        <ele>193.36</ele>
        <time>2019-08-01T12:40:43Z</time>
      </trkpt>
      <trkpt lat="49.5982" lon="4.95761">
        <ele>193.36</ele>
        <time>2019-08-01T12:40:57Z</time>
      </trkpt>
      <trkpt lat="49.5981" lon="4.95774">
        <ele>193.36</ele>
        <time>2019-08-01T12:41:11Z</time>
      </trkpt>
      <trkpt lat="49.59798" lon="4.95789">
        <ele>195.28</ele>
        <time>2019-08-01T12:41:25Z</time>
      </trkpt>
      <trkpt lat="49.59788" lon="4.95802">
        <ele>197.21</ele>
        <time>2019-08-01T12:41:38Z</time>
      </trkpt>
      <trkpt lat="49.59775" lon="4.9582">
        <ele>200.57</ele>
        <time>2019-08-01T12:41:53Z</time>
      </trkpt>
      <trkpt lat="49.59764" lon="4.95835">
        <ele>201.53</ele>
        <time>2019-08-01T12:42:07Z</time>
      </trkpt>
      <trkpt lat="49.5975" lon="4.95851">
        <ele>202.98</ele>
        <time>2019-08-01T12:42:23Z</time>
      </trkpt>
      <trkpt lat="49.59739" lon="4.95866">
        <ele>204.42</ele>
        <time>2019-08-01T12:42:37Z</time>
      </trkpt>
      <trkpt lat="49.59728" lon="4.95886">
        <ele>205.86</ele>
        <time>2019-08-01T12:42:53Z</time>
      </trkpt>
      <trkpt lat="49.59719" lon="4.95907">
        <ele>205.86</ele>
        <time>2019-08-01T12:43:08Z</time>
      </trkpt>
      <trkpt lat="49.59713" lon="4.95932">
        <ele>207.78</ele>
        <time>2019-08-01T12:43:24Z</time>
      </trkpt>
      <trkpt lat="49.59708" lon="4.95951">
        <ele>209.22</ele>
        <time>2019-08-01T12:43:37Z</time>
      </trkpt>
      <trkpt lat="49.59703" lon="4.95972">
        <ele>211.15</ele>
        <time>2019-08-01T12:43:50Z</time>
      </trkpt>
      <trkpt lat="49.59698" lon="4.95994">
        <ele>213.07</ele>
        <time>2019-08-01T12:44:04Z</time>
      </trkpt>
      <trkpt lat="49.59693" lon="4.96014">
        <ele>214.51</ele>
        <time>2019-08-01T12:44:18Z</time>
      </trkpt>
      <trkpt lat="49.59687" lon="4.96039">
        <ele>215.47</ele>
        <time>2019-08-01T12:44:34Z</time>
      </trkpt>
      <trkpt lat="49.59681" lon="4.96059">
        <ele>216.91</ele>
        <time>2019-08-01T12:44:47Z</time>
      </trkpt>
      <trkpt lat="49.59677" lon="4.96079">
        <ele>219.32</ele>
        <time>2019-08-01T12:45:01Z</time>
      </trkpt>
      <trkpt lat="49.59671" lon="4.96103">
        <ele>221.24</ele>
        <time>2019-08-01T12:45:16Z</time>
      </trkpt>
      <trkpt lat="49.59667" lon="4.96121">
        <ele>221.72</ele>
        <time>2019-08-01T12:45:29Z</time>
      </trkpt>
      <trkpt lat="49.59661" lon="4.96143">
        <ele>223.64</ele>
        <time>2019-08-01T12:45:44Z</time>
      </trkpt>
      <trkpt lat="49.59654" lon="4.96165">
        <ele>225.57</ele>
        <time>2019-08-01T12:45:59Z</time>
      </trkpt>
      <trkpt lat="49.59645" lon="4.96183">
        <ele>226.05</ele>
        <time>2019-08-01T12:46:14Z</time>
      </trkpt>
      <trkpt lat="49.59638" lon="4.96202">
        <ele>227.01</ele>
        <time>2019-08-01T12:46:27Z</time>
      </trkpt>
      <trkpt lat="49.59634" lon="4.96213">
        <ele>227.01</ele>
        <time>2019-08-01T12:46:35Z</time>
      </trkpt>
      <trkpt lat="49.59627" lon="4.96234">
        <ele>228.45</ele>
        <time>2019-08-01T12:46:49Z</time>
      </trkpt>
      <trkpt lat="49.59623" lon="4.96244">
        <ele>228.45</ele>
        <time>2019-08-01T12:46:57Z</time>
      </trkpt>
      <trkpt lat="49.59622" lon="4.9625">
        <ele>227.97</ele>
        <time>2019-08-01T12:47:00Z</time>
      </trkpt>
      <trkpt lat="49.59614" lon="4.96269">
        <ele>228.45</ele>
        <time>2019-08-01T12:47:15Z</time>
      </trkpt>
      <trkpt lat="49.59609" lon="4.96288">
        <ele>229.89</ele>
        <time>2019-08-01T12:47:29Z</time>
      </trkpt>
      <trkpt lat="49.59608" lon="4.96291">
        <ele>229.89</ele>
        <time>2019-08-01T12:47:31Z</time>
      </trkpt>
      <trkpt lat="49.59605" lon="4.96303">
        <ele>230.85</ele>
        <time>2019-08-01T12:47:39Z</time>
      </trkpt>
      <trkpt lat="49.59599" lon="4.96325">
        <ele>232.78</ele>
        <time>2019-08-01T12:47:54Z</time>
      </trkpt>
      <trkpt lat="49.59595" lon="4.96345">
        <ele>235.18</ele>
        <time>2019-08-01T12:48:08Z</time>
      </trkpt>
      <trkpt lat="49.59589" lon="4.96365">
        <ele>237.58</ele>
        <time>2019-08-01T12:48:23Z</time>
      </trkpt>
      <trkpt lat="49.59584" lon="4.96387">
        <ele>239.02</ele>
        <time>2019-08-01T12:48:37Z</time>
      </trkpt>
      <trkpt lat="49.59582" lon="4.96404">
        <ele>240.47</ele>
        <time>2019-08-01T12:48:48Z</time>
      </trkpt>
      <trkpt lat="49.59582" lon="4.9643">
        <ele>242.87</ele>
        <time>2019-08-01T12:49:04Z</time>
      </trkpt>
      <trkpt lat="49.5958" lon="4.96452">
        <ele>245.27</ele>
        <time>2019-08-01T12:49:19Z</time>
      </trkpt>
      <trkpt lat="49.59579" lon="4.96474">
        <ele>247.2</ele>
        <time>2019-08-01T12:49:32Z</time>
      </trkpt>
      <trkpt lat="49.59576" lon="4.96497">
        <ele>249.6</ele>
        <time>2019-08-01T12:49:46Z</time>
      </trkpt>
      <trkpt lat="49.59575" lon="4.96522">
        <ele>251.04</ele>
        <time>2019-08-01T12:50:00Z</time>
      </trkpt>
      <trkpt lat="49.59575" lon="4.96544">
        <ele>253.93</ele>
        <time>2019-08-01T12:50:16Z</time>
      </trkpt>
      <trkpt lat="49.59575" lon="4.96564">
        <ele>253.93</ele>
        <time>2019-08-01T12:50:29Z</time>
      </trkpt>
      <trkpt lat="49.59575" lon="4.96581">
        <ele>254.89</ele>
        <time>2019-08-01T12:50:40Z</time>
      </trkpt>
      <trkpt lat="49.59576" lon="4.96584">
        <ele>254.89</ele>
        <time>2019-08-01T12:50:42Z</time>
      </trkpt>
      <trkpt lat="49.59574" lon="4.96611">
        <ele>256.33</ele>
        <time>2019-08-01T12:50:58Z</time>
      </trkpt>
      <trkpt lat="49.59572" lon="4.96632">
        <ele>256.33</ele>
        <time>2019-08-01T12:51:12Z</time>
      </trkpt>
      <trkpt lat="49.59571" lon="4.96636">
        <ele>256.33</ele>
        <time>2019-08-01T12:51:15Z</time>
      </trkpt>
      <trkpt lat="49.59568" lon="4.96659">
        <ele>258.25</ele>
        <time>2019-08-01T12:51:29Z</time>
      </trkpt>
      <trkpt lat="49.59566" lon="4.96683">
        <ele>260.17</ele>
        <time>2019-08-01T12:51:43Z</time>
      </trkpt>
      <trkpt lat="49.59566" lon="4.96705">
        <ele>261.62</ele>
        <time>2019-08-01T12:51:57Z</time>
      </trkpt>
      <trkpt lat="49.59566" lon="4.96708">
        <ele>262.1</ele>
        <time>2019-08-01T12:52:00Z</time>
      </trkpt>
      <trkpt lat="49.59566" lon="4.96729">
        <ele>262.58</ele>
        <time>2019-08-01T12:52:13Z</time>
      </trkpt>
      <trkpt lat="49.59567" lon="4.96752">
        <ele>263.54</ele>
        <time>2019-08-01T12:52:27Z</time>
      </trkpt>
      <trkpt lat="49.59567" lon="4.96768">
        <ele>262.1</ele>
        <time>2019-08-01T12:52:37Z</time>
      </trkpt>
      <trkpt lat="49.59566" lon="4.96792">
        <ele>261.62</ele>
        <time>2019-08-01T12:52:52Z</time>
      </trkpt>
      <trkpt lat="49.59566" lon="4.96817">
        <ele>262.58</ele>
        <time>2019-08-01T12:53:06Z</time>
      </trkpt>
      <trkpt lat="49.59565" lon="4.9684">
        <ele>263.06</ele>
        <time>2019-08-01T12:53:20Z</time>
      </trkpt>
      <trkpt lat="49.59564" lon="4.96863">
        <ele>264.5</ele>
        <time>2019-08-01T12:53:34Z</time>
      </trkpt>
      <trkpt lat="49.59566" lon="4.96886">
        <ele>265.46</ele>
        <time>2019-08-01T12:53:49Z</time>
      </trkpt>
      <trkpt lat="49.59566" lon="4.96887">
        <ele>265.46</ele>
        <time>2019-08-01T12:53:50Z</time>
      </trkpt>
      <trkpt lat="49.59566" lon="4.96891">
        <ele>265.46</ele>
        <time>2019-08-01T12:53:52Z</time>
      </trkpt>
      <trkpt lat="49.59566" lon="4.96916">
        <ele>264.5</ele>
        <time>2019-08-01T12:54:07Z</time>
      </trkpt>
      <trkpt lat="49.59569" lon="4.96926">
        <ele>265.46</ele>
        <time>2019-08-01T12:54:14Z</time>
      </trkpt>
      <trkpt lat="49.59567" lon="4.96949">
        <ele>270.27</ele>
        <time>2019-08-01T12:54:28Z</time>
      </trkpt>
      <trkpt lat="49.59569" lon="4.96972">
        <ele>272.19</ele>
        <time>2019-08-01T12:54:42Z</time>
      </trkpt>
      <trkpt lat="49.59567" lon="4.96989">
        <ele>272.19</ele>
        <time>2019-08-01T12:54:54Z</time>
      </trkpt>
      <trkpt lat="49.59568" lon="4.97014">
        <ele>273.15</ele>
        <time>2019-08-01T12:55:09Z</time>
      </trkpt>
      <trkpt lat="49.5957" lon="4.97032">
        <ele>276.04</ele>
        <time>2019-08-01T12:55:24Z</time>
      </trkpt>
      <trkpt lat="49.59571" lon="4.97039">
        <ele>277.48</ele>
        <time>2019-08-01T12:55:31Z</time>
      </trkpt>
      <trkpt lat="49.59579" lon="4.9705">
        <ele>277.48</ele>
        <time>2019-08-01T12:55:46Z</time>
      </trkpt>
      <trkpt lat="49.59586" lon="4.97049">
        <ele>273.63</ele>
        <time>2019-08-01T12:56:04Z</time>
      </trkpt>
      <trkpt lat="49.59589" lon="4.97053">
        <ele>269.79</ele>
        <time>2019-08-01T12:56:25Z</time>
      </trkpt>
      <trkpt lat="49.59589" lon="4.97052">
        <ele>269.79</ele>
        <time>2019-08-01T12:56:44Z</time>
      </trkpt>
      <trkpt lat="49.59587" lon="4.97048">
        <ele>268.35</ele>
        <time>2019-08-01T12:57:20Z</time>
      </trkpt>
      <trkpt lat="49.59587" lon="4.97047">
        <ele>267.86</ele>
        <time>2019-08-01T12:57:48Z</time>
      </trkpt>
      <trkpt lat="49.59589" lon="4.97046">
        <ele>267.86</ele>
        <time>2019-08-01T12:58:25Z</time>
      </trkpt>
      <trkpt lat="49.59591" lon="4.97046">
        <ele>268.83</ele>
        <time>2019-08-01T12:59:02Z</time>
      </trkpt>
      <trkpt lat="49.59591" lon="4.97045">
        <ele>269.31</ele>
        <time>2019-08-01T12:59:37Z</time>
      </trkpt>
      <trkpt lat="49.59591" lon="4.97044">
        <ele>268.83</ele>
        <time>2019-08-01T13:00:03Z</time>
      </trkpt>
      <trkpt lat="49.59591" lon="4.97044">
        <ele>268.83</ele>
        <time>2019-08-01T13:00:34Z</time>
      </trkpt>
      <trkpt lat="49.59591" lon="4.97044">
        <ele>268.83</ele>
        <time>2019-08-01T13:01:04Z</time>
      </trkpt>
      <trkpt lat="49.59591" lon="4.97044">
        <ele>268.35</ele>
        <time>2019-08-01T13:01:30Z</time>
      </trkpt>
      <trkpt lat="49.5959" lon="4.97044">
        <ele>268.35</ele>
        <time>2019-08-01T13:02:07Z</time>
      </trkpt>
      <trkpt lat="49.59589" lon="4.97044">
        <ele>267.86</ele>
        <time>2019-08-01T13:02:44Z</time>
      </trkpt>
      <trkpt lat="49.59589" lon="4.97043">
        <ele>266.42</ele>
        <time>2019-08-01T13:03:20Z</time>
      </trkpt>
      <trkpt lat="49.59589" lon="4.97044">
        <ele>267.38</ele>
        <time>2019-08-01T13:03:53Z</time>
      </trkpt>
      <trkpt lat="49.59589" lon="4.97043">
        <ele>266.42</ele>
        <time>2019-08-01T13:04:21Z</time>
      </trkpt>
      <trkpt lat="49.59588" lon="4.97043">
        <ele>266.42</ele>
        <time>2019-08-01T13:04:56Z</time>
      </trkpt>
      <trkpt lat="49.59588" lon="4.97041">
        <ele>265.94</ele>
        <time>2019-08-01T13:05:34Z</time>
      </trkpt>
      <trkpt lat="49.59588" lon="4.97041">
        <ele>266.42</ele>
        <time>2019-08-01T13:06:08Z</time>
      </trkpt>
      <trkpt lat="49.59588" lon="4.97042">
        <ele>265.94</ele>
        <time>2019-08-01T13:06:39Z</time>
      </trkpt>
      <trkpt lat="49.59588" lon="4.97043">
        <ele>265.94</ele>
        <time>2019-08-01T13:07:03Z</time>
      </trkpt>
      <trkpt lat="49.5959" lon="4.97044">
        <ele>265.94</ele>
        <time>2019-08-01T13:07:33Z</time>
      </trkpt>
      <trkpt lat="49.59591" lon="4.97048">
        <ele>266.42</ele>
        <time>2019-08-01T13:08:04Z</time>
      </trkpt>
      <trkpt lat="49.59591" lon="4.97048">
        <ele>265.94</ele>
        <time>2019-08-01T13:08:31Z</time>
      </trkpt>
      <trkpt lat="49.59592" lon="4.97047">
        <ele>265.46</ele>
        <time>2019-08-01T13:08:56Z</time>
      </trkpt>
      <trkpt lat="49.59592" lon="4.97047">
        <ele>265.46</ele>
        <time>2019-08-01T13:09:21Z</time>
      </trkpt>
      <trkpt lat="49.59593" lon="4.97047">
        <ele>264.02</ele>
        <time>2019-08-01T13:09:49Z</time>
      </trkpt>
      <trkpt lat="49.59594" lon="4.97046">
        <ele>263.54</ele>
        <time>2019-08-01T13:10:15Z</time>
      </trkpt>
      <trkpt lat="49.59594" lon="4.97046">
        <ele>263.54</ele>
        <time>2019-08-01T13:10:42Z</time>
      </trkpt>
      <trkpt lat="49.59594" lon="4.97045">
        <ele>263.54</ele>
        <time>2019-08-01T13:11:06Z</time>
      </trkpt>
      <trkpt lat="49.59594" lon="4.97045">
        <ele>263.54</ele>
        <time>2019-08-01T13:11:31Z</time>
      </trkpt>
      <trkpt lat="49.59594" lon="4.97045">
        <ele>263.54</ele>
        <time>2019-08-01T13:11:53Z</time>
      </trkpt>
      <trkpt lat="49.59593" lon="4.97047">
        <ele>263.54</ele>
        <time>2019-08-01T13:12:08Z</time>
      </trkpt>
      <trkpt lat="49.5959" lon="4.97054">
        <ele>264.5</ele>
        <time>2019-08-01T13:12:21Z</time>
      </trkpt>
      <trkpt lat="49.59587" lon="4.97061">
        <ele>264.98</ele>
        <time>2019-08-01T13:12:35Z</time>
      </trkpt>
      <trkpt lat="49.59585" lon="4.97071">
        <ele>265.94</ele>
        <time>2019-08-01T13:12:41Z</time>
      </trkpt>
      <trkpt lat="49.59578" lon="4.97097">
        <ele>267.38</ele>
        <time>2019-08-01T13:12:57Z</time>
      </trkpt>
      <trkpt lat="49.59573" lon="4.97118">
        <ele>267.38</ele>
        <time>2019-08-01T13:13:10Z</time>
      </trkpt>
      <trkpt lat="49.59569" lon="4.9713">
        <ele>268.35</ele>
        <time>2019-08-01T13:13:18Z</time>
      </trkpt>
      <trkpt lat="49.59566" lon="4.97137">
        <ele>269.31</ele>
        <time>2019-08-01T13:13:23Z</time>
      </trkpt>
      <trkpt lat="49.59563" lon="4.97148">
        <ele>270.75</ele>
        <time>2019-08-01T13:13:30Z</time>
      </trkpt>
      <trkpt lat="49.5956" lon="4.97153">
        <ele>271.23</ele>
        <time>2019-08-01T13:13:34Z</time>
      </trkpt>
      <trkpt lat="49.59558" lon="4.97159">
        <ele>272.19</ele>
        <time>2019-08-01T13:13:38Z</time>
      </trkpt>
      <trkpt lat="49.5955" lon="4.97179">
        <ele>273.15</ele>
        <time>2019-08-01T13:13:52Z</time>
      </trkpt>
      <trkpt lat="49.59543" lon="4.97195">
        <ele>271.23</ele>
        <time>2019-08-01T13:14:05Z</time>
      </trkpt>
      <trkpt lat="49.59529" lon="4.97214">
        <ele>270.27</ele>
        <time>2019-08-01T13:14:21Z</time>
      </trkpt>
      <trkpt lat="49.59518" lon="4.97229">
        <ele>270.75</ele>
        <time>2019-08-01T13:14:36Z</time>
      </trkpt>
      <trkpt lat="49.59507" lon="4.97246">
        <ele>270.27</ele>
        <time>2019-08-01T13:14:51Z</time>
      </trkpt>
      <trkpt lat="49.59494" lon="4.97265">
        <ele>269.79</ele>
        <time>2019-08-01T13:15:06Z</time>
      </trkpt>
      <trkpt lat="49.59492" lon="4.97268">
        <ele>269.79</ele>
        <time>2019-08-01T13:15:10Z</time>
      </trkpt>
      <trkpt lat="49.59483" lon="4.97285">
        <ele>270.75</ele>
        <time>2019-08-01T13:15:23Z</time>
      </trkpt>
      <trkpt lat="49.59474" lon="4.97299">
        <ele>272.67</ele>
        <time>2019-08-01T13:15:35Z</time>
      </trkpt>
      <trkpt lat="49.59462" lon="4.97315">
        <ele>273.15</ele>
        <time>2019-08-01T13:15:51Z</time>
      </trkpt>
      <trkpt lat="49.59452" lon="4.97332">
        <ele>274.59</ele>
        <time>2019-08-01T13:16:05Z</time>
      </trkpt>
      <trkpt lat="49.59443" lon="4.97345">
        <ele>277.48</ele>
        <time>2019-08-01T13:16:19Z</time>
      </trkpt>
      <trkpt lat="49.59442" lon="4.97351">
        <ele>278.44</ele>
        <time>2019-08-01T13:16:22Z</time>
      </trkpt>
      <trkpt lat="49.59436" lon="4.9736">
        <ele>278.92</ele>
        <time>2019-08-01T13:16:30Z</time>
      </trkpt>
      <trkpt lat="49.59426" lon="4.97379">
        <ele>280.36</ele>
        <time>2019-08-01T13:16:45Z</time>
      </trkpt>
      <trkpt lat="49.59417" lon="4.97399">
        <ele>282.28</ele>
        <time>2019-08-01T13:16:59Z</time>
      </trkpt>
      <trkpt lat="49.59407" lon="4.97416">
        <ele>283.73</ele>
        <time>2019-08-01T13:17:13Z</time>
      </trkpt>
      <trkpt lat="49.59407" lon="4.97423">
        <ele>284.69</ele>
        <time>2019-08-01T13:17:18Z</time>
      </trkpt>
      <trkpt lat="49.5942" lon="4.97444">
        <ele>289.01</ele>
        <time>2019-08-01T13:17:34Z</time>
      </trkpt>
      <trkpt lat="49.5942" lon="4.97446">
        <ele>289.49</ele>
        <time>2019-08-01T13:17:35Z</time>
      </trkpt>
      <trkpt lat="49.59428" lon="4.97457">
        <ele>290.46</ele>
        <time>2019-08-01T13:17:44Z</time>
      </trkpt>
      <trkpt lat="49.59429" lon="4.97464">
        <ele>290.46</ele>
        <time>2019-08-01T13:17:49Z</time>
      </trkpt>
      <trkpt lat="49.59441" lon="4.97484">
        <ele>291.42</ele>
        <time>2019-08-01T13:18:05Z</time>
      </trkpt>
      <trkpt lat="49.59444" lon="4.97489">
        <ele>292.38</ele>
        <time>2019-08-01T13:18:09Z</time>
      </trkpt>
      <trkpt lat="49.59453" lon="4.97509">
        <ele>294.3</ele>
        <time>2019-08-01T13:18:23Z</time>
      </trkpt>
      <trkpt lat="49.59462" lon="4.97525">
        <ele>295.26</ele>
        <time>2019-08-01T13:18:37Z</time>
      </trkpt>
      <trkpt lat="49.59472" lon="4.97541">
        <ele>295.74</ele>
        <time>2019-08-01T13:18:50Z</time>
      </trkpt>
      <trkpt lat="49.59483" lon="4.97561">
        <ele>297.18</ele>
        <time>2019-08-01T13:19:05Z</time>
      </trkpt>
      <trkpt lat="49.59493" lon="4.97581">
        <ele>298.15</ele>
        <time>2019-08-01T13:19:21Z</time>
      </trkpt>
      <trkpt lat="49.595" lon="4.97592">
        <ele>298.15</ele>
        <time>2019-08-01T13:19:33Z</time>
      </trkpt>
      <trkpt lat="49.5951" lon="4.97611">
        <ele>298.63</ele>
        <time>2019-08-01T13:19:48Z</time>
      </trkpt>
      <trkpt lat="49.59519" lon="4.97626">
        <ele>298.63</ele>
        <time>2019-08-01T13:20:02Z</time>
      </trkpt>
      <trkpt lat="49.59527" lon="4.97643">
        <ele>299.59</ele>
        <time>2019-08-01T13:20:15Z</time>
      </trkpt>
      <trkpt lat="49.59537" lon="4.9766">
        <ele>299.59</ele>
        <time>2019-08-01T13:20:29Z</time>
      </trkpt>
      <trkpt lat="49.59546" lon="4.97677">
        <ele>299.11</ele>
        <time>2019-08-01T13:20:45Z</time>
      </trkpt>
      <trkpt lat="49.59556" lon="4.97694">
        <ele>298.15</ele>
        <time>2019-08-01T13:20:58Z</time>
      </trkpt>
      <trkpt lat="49.59565" lon="4.97707">
        <ele>297.18</ele>
        <time>2019-08-01T13:21:11Z</time>
      </trkpt>
      <trkpt lat="49.59573" lon="4.97716">
        <ele>296.7</ele>
        <time>2019-08-01T13:21:23Z</time>
      </trkpt>
      <trkpt lat="49.59579" lon="4.97729">
        <ele>296.7</ele>
        <time>2019-08-01T13:21:37Z</time>
      </trkpt>
      <trkpt lat="49.59588" lon="4.97752">
        <ele>294.3</ele>
        <time>2019-08-01T13:21:56Z</time>
      </trkpt>
      <trkpt lat="49.59598" lon="4.97773">
        <ele>292.38</ele>
        <time>2019-08-01T13:22:13Z</time>
      </trkpt>
      <trkpt lat="49.59607" lon="4.97793">
        <ele>290.94</ele>
        <time>2019-08-01T13:22:29Z</time>
      </trkpt>
      <trkpt lat="49.59618" lon="4.97811">
        <ele>292.38</ele>
        <time>2019-08-01T13:22:45Z</time>
      </trkpt>
      <trkpt lat="49.59622" lon="4.97818">
        <ele>292.38</ele>
        <time>2019-08-01T13:22:50Z</time>
      </trkpt>
      <trkpt lat="49.59632" lon="4.97837">
        <ele>292.38</ele>
        <time>2019-08-01T13:23:06Z</time>
      </trkpt>
      <trkpt lat="49.59639" lon="4.97853">
        <ele>291.9</ele>
        <time>2019-08-01T13:23:20Z</time>
      </trkpt>
      <trkpt lat="49.59646" lon="4.97865">
        <ele>292.38</ele>
        <time>2019-08-01T13:23:33Z</time>
      </trkpt>
      <trkpt lat="49.59655" lon="4.97885">
        <ele>293.34</ele>
        <time>2019-08-01T13:23:49Z</time>
      </trkpt>
      <trkpt lat="49.59668" lon="4.97913">
        <ele>291.9</ele>
        <time>2019-08-01T13:24:09Z</time>
      </trkpt>
      <trkpt lat="49.59678" lon="4.97934">
        <ele>290.94</ele>
        <time>2019-08-01T13:24:26Z</time>
      </trkpt>
      <trkpt lat="49.59688" lon="4.97954">
        <ele>291.42</ele>
        <time>2019-08-01T13:24:41Z</time>
      </trkpt>
      <trkpt lat="49.59697" lon="4.97973">
        <ele>292.86</ele>
        <time>2019-08-01T13:24:55Z</time>
      </trkpt>
      <trkpt lat="49.59707" lon="4.97996">
        <ele>294.78</ele>
        <time>2019-08-01T13:25:12Z</time>
      </trkpt>
      <trkpt lat="49.59717" lon="4.98021">
        <ele>294.3</ele>
        <time>2019-08-01T13:25:31Z</time>
      </trkpt>
      <trkpt lat="49.59727" lon="4.98043">
        <ele>293.34</ele>
        <time>2019-08-01T13:25:48Z</time>
      </trkpt>
      <trkpt lat="49.59738" lon="4.98067">
        <ele>293.82</ele>
        <time>2019-08-01T13:26:05Z</time>
      </trkpt>
      <trkpt lat="49.5974" lon="4.98072">
        <ele>294.78</ele>
        <time>2019-08-01T13:26:09Z</time>
      </trkpt>
      <trkpt lat="49.59742" lon="4.98079">
        <ele>294.3</ele>
        <time>2019-08-01T13:26:14Z</time>
      </trkpt>
      <trkpt lat="49.59748" lon="4.98096">
        <ele>293.82</ele>
        <time>2019-08-01T13:26:26Z</time>
      </trkpt>
      <trkpt lat="49.59758" lon="4.9812">
        <ele>293.34</ele>
        <time>2019-08-01T13:26:43Z</time>
      </trkpt>
      <trkpt lat="49.59767" lon="4.98143">
        <ele>295.26</ele>
        <time>2019-08-01T13:27:00Z</time>
      </trkpt>
      <trkpt lat="49.59773" lon="4.9816">
        <ele>296.7</ele>
        <time>2019-08-01T13:27:14Z</time>
      </trkpt>
      <trkpt lat="49.59782" lon="4.98184">
        <ele>299.11</ele>
        <time>2019-08-01T13:27:29Z</time>
      </trkpt>
      <trkpt lat="49.59789" lon="4.98201">
        <ele>297.67</ele>
        <time>2019-08-01T13:27:44Z</time>
      </trkpt>
      <trkpt lat="49.59796" lon="4.98222">
        <ele>296.22</ele>
        <time>2019-08-01T13:28:00Z</time>
      </trkpt>
      <trkpt lat="49.59801" lon="4.98243">
        <ele>296.22</ele>
        <time>2019-08-01T13:28:15Z</time>
      </trkpt>
      <trkpt lat="49.59809" lon="4.98264">
        <ele>296.22</ele>
        <time>2019-08-01T13:28:29Z</time>
      </trkpt>
      <trkpt lat="49.59817" lon="4.98287">
        <ele>298.15</ele>
        <time>2019-08-01T13:28:47Z</time>
      </trkpt>
      <trkpt lat="49.59827" lon="4.98315">
        <ele>299.11</ele>
        <time>2019-08-01T13:29:07Z</time>
      </trkpt>
      <trkpt lat="49.59833" lon="4.98334">
        <ele>299.11</ele>
        <time>2019-08-01T13:29:24Z</time>
      </trkpt>
      <trkpt lat="49.59835" lon="4.98337">
        <ele>300.07</ele>
        <time>2019-08-01T13:29:39Z</time>
      </trkpt>
      <trkpt lat="49.59841" lon="4.98357">
        <ele>300.55</ele>
        <time>2019-08-01T13:29:55Z</time>
      </trkpt>
      <trkpt lat="49.59844" lon="4.98368">
        <ele>300.07</ele>
        <time>2019-08-01T13:30:11Z</time>
      </trkpt>
      <trkpt lat="49.59846" lon="4.98372">
        <ele>300.07</ele>
        <time>2019-08-01T13:30:20Z</time>
      </trkpt>
      <trkpt lat="49.59857" lon="4.98397">
        <ele>301.51</ele>
        <time>2019-08-01T13:30:36Z</time>
      </trkpt>
      <trkpt lat="49.59865" lon="4.98418">
        <ele>301.51</ele>
        <time>2019-08-01T13:30:52Z</time>
      </trkpt>
      <trkpt lat="49.59874" lon="4.9844">
        <ele>305.84</ele>
        <time>2019-08-01T13:31:07Z</time>
      </trkpt>
      <trkpt lat="49.59884" lon="4.98463">
        <ele>310.16</ele>
        <time>2019-08-01T13:31:24Z</time>
      </trkpt>
      <trkpt lat="49.59891" lon="4.98482">
        <ele>311.6</ele>
        <time>2019-08-01T13:31:38Z</time>
      </trkpt>
      <trkpt lat="49.59902" lon="4.98508">
        <ele>314.01</ele>
        <time>2019-08-01T13:31:55Z</time>
      </trkpt>
      <trkpt lat="49.59907" lon="4.9852">
        <ele>314.97</ele>
        <time>2019-08-01T13:32:04Z</time>
      </trkpt>
      <trkpt lat="49.59916" lon="4.98547">
        <ele>318.33</ele>
        <time>2019-08-01T13:32:22Z</time>
      </trkpt>
      <trkpt lat="49.59919" lon="4.98551">
        <ele>319.78</ele>
        <time>2019-08-01T13:32:26Z</time>
      </trkpt>
      <trkpt lat="49.59937" lon="4.98564">
        <ele>320.74</ele>
        <time>2019-08-01T13:32:44Z</time>
      </trkpt>
      <trkpt lat="49.59955" lon="4.98579">
        <ele>319.78</ele>
        <time>2019-08-01T13:33:04Z</time>
      </trkpt>
      <trkpt lat="49.59975" lon="4.9859">
        <ele>316.89</ele>
        <time>2019-08-01T13:33:23Z</time>
      </trkpt>
      <trkpt lat="49.5999" lon="4.98604">
        <ele>317.37</ele>
        <time>2019-08-01T13:33:40Z</time>
      </trkpt>
      <trkpt lat="49.60011" lon="4.98615">
        <ele>317.37</ele>
        <time>2019-08-01T13:34:00Z</time>
      </trkpt>
      <trkpt lat="49.60034" lon="4.98626">
        <ele>315.45</ele>
        <time>2019-08-01T13:34:22Z</time>
      </trkpt>
      <trkpt lat="49.60054" lon="4.98627">
        <ele>311.12</ele>
        <time>2019-08-01T13:34:37Z</time>
      </trkpt>
      <trkpt lat="49.60067" lon="4.9862">
        <ele>308.72</ele>
        <time>2019-08-01T13:34:48Z</time>
      </trkpt>
      <trkpt lat="49.60068" lon="4.98616">
        <ele>308.72</ele>
        <time>2019-08-01T13:34:50Z</time>
      </trkpt>
      <trkpt lat="49.60084" lon="4.98613">
        <ele>309.2</ele>
        <time>2019-08-01T13:35:07Z</time>
      </trkpt>
      <trkpt lat="49.60085" lon="4.98614">
        <ele>309.2</ele>
        <time>2019-08-01T13:35:08Z</time>
      </trkpt>
      <trkpt lat="49.60099" lon="4.98628">
        <ele>303.91</ele>
        <time>2019-08-01T13:35:27Z</time>
      </trkpt>
      <trkpt lat="49.60108" lon="4.98647">
        <ele>302.47</ele>
        <time>2019-08-01T13:35:43Z</time>
      </trkpt>
      <trkpt lat="49.60112" lon="4.98652">
        <ele>301.99</ele>
        <time>2019-08-01T13:36:00Z</time>
      </trkpt>
      <trkpt lat="49.6012" lon="4.98665">
        <ele>302.47</ele>
        <time>2019-08-01T13:36:15Z</time>
      </trkpt>
      <trkpt lat="49.60131" lon="4.98681">
        <ele>298.63</ele>
        <time>2019-08-01T13:36:32Z</time>
      </trkpt>
      <trkpt lat="49.60145" lon="4.98703">
        <ele>296.22</ele>
        <time>2019-08-01T13:36:52Z</time>
      </trkpt>
      <trkpt lat="49.60157" lon="4.98715">
        <ele>294.78</ele>
        <time>2019-08-01T13:37:09Z</time>
      </trkpt>
      <trkpt lat="49.60169" lon="4.98729">
        <ele>295.26</ele>
        <time>2019-08-01T13:37:24Z</time>
      </trkpt>
      <trkpt lat="49.60182" lon="4.98742">
        <ele>293.34</ele>
        <time>2019-08-01T13:37:41Z</time>
      </trkpt>
      <trkpt lat="49.60197" lon="4.9875">
        <ele>295.26</ele>
        <time>2019-08-01T13:37:56Z</time>
      </trkpt>
      <trkpt lat="49.60213" lon="4.98753">
        <ele>297.67</ele>
        <time>2019-08-01T13:38:10Z</time>
      </trkpt>
      <trkpt lat="49.60234" lon="4.98758">
        <ele>299.59</ele>
        <time>2019-08-01T13:38:28Z</time>
      </trkpt>
      <trkpt lat="49.60251" lon="4.98763">
        <ele>299.59</ele>
        <time>2019-08-01T13:38:43Z</time>
      </trkpt>
      <trkpt lat="49.60266" lon="4.9877">
        <ele>298.63</ele>
        <time>2019-08-01T13:38:58Z</time>
      </trkpt>
      <trkpt lat="49.6028" lon="4.98779">
        <ele>301.03</ele>
        <time>2019-08-01T13:39:14Z</time>
      </trkpt>
      <trkpt lat="49.60294" lon="4.9878">
        <ele>303.43</ele>
        <time>2019-08-01T13:39:31Z</time>
      </trkpt>
      <trkpt lat="49.60308" lon="4.98786">
        <ele>307.76</ele>
        <time>2019-08-01T13:39:45Z</time>
      </trkpt>
      <trkpt lat="49.60315" lon="4.98791">
        <ele>307.76</ele>
        <time>2019-08-01T13:39:51Z</time>
      </trkpt>
      <trkpt lat="49.60329" lon="4.98799">
        <ele>309.68</ele>
        <time>2019-08-01T13:40:05Z</time>
      </trkpt>
      <trkpt lat="49.6033" lon="4.98799">
        <ele>310.16</ele>
        <time>2019-08-01T13:40:06Z</time>
      </trkpt>
      <trkpt lat="49.60345" lon="4.98808">
        <ele>313.53</ele>
        <time>2019-08-01T13:40:22Z</time>
      </trkpt>
      <trkpt lat="49.60359" lon="4.98818">
        <ele>313.53</ele>
        <time>2019-08-01T13:40:38Z</time>
      </trkpt>
      <trkpt lat="49.60377" lon="4.98824">
        <ele>313.05</ele>
        <time>2019-08-01T13:40:53Z</time>
      </trkpt>
      <trkpt lat="49.60391" lon="4.98826">
        <ele>313.05</ele>
        <time>2019-08-01T13:41:04Z</time>
      </trkpt>
      <trkpt lat="49.60407" lon="4.98835">
        <ele>310.16</ele>
        <time>2019-08-01T13:41:20Z</time>
      </trkpt>
      <trkpt lat="49.60409" lon="4.98837">
        <ele>309.68</ele>
        <time>2019-08-01T13:41:22Z</time>
      </trkpt>
      <trkpt lat="49.60425" lon="4.98845">
        <ele>311.12</ele>
        <time>2019-08-01T13:41:38Z</time>
      </trkpt>
      <trkpt lat="49.60443" lon="4.98852">
        <ele>312.09</ele>
        <time>2019-08-01T13:41:55Z</time>
      </trkpt>
      <trkpt lat="49.60462" lon="4.98863">
        <ele>309.68</ele>
        <time>2019-08-01T13:42:12Z</time>
      </trkpt>
      <trkpt lat="49.6048" lon="4.98877">
        <ele>309.68</ele>
        <time>2019-08-01T13:42:30Z</time>
      </trkpt>
      <trkpt lat="49.60493" lon="4.98884">
        <ele>310.16</ele>
        <time>2019-08-01T13:42:46Z</time>
      </trkpt>
      <trkpt lat="49.60511" lon="4.98895">
        <ele>311.12</ele>
        <time>2019-08-01T13:43:04Z</time>
      </trkpt>
      <trkpt lat="49.60528" lon="4.98899">
        <ele>311.12</ele>
        <time>2019-08-01T13:43:19Z</time>
      </trkpt>
      <trkpt lat="49.60542" lon="4.98905">
        <ele>311.12</ele>
        <time>2019-08-01T13:43:32Z</time>
      </trkpt>
      <trkpt lat="49.60545" lon="4.98906">
        <ele>310.64</ele>
        <time>2019-08-01T13:43:35Z</time>
      </trkpt>
      <trkpt lat="49.60556" lon="4.9891">
        <ele>309.2</ele>
        <time>2019-08-01T13:43:48Z</time>
      </trkpt>
      <trkpt lat="49.60572" lon="4.98914">
        <ele>309.68</ele>
        <time>2019-08-01T13:44:03Z</time>
      </trkpt>
      <trkpt lat="49.60586" lon="4.98918">
        <ele>310.64</ele>
        <time>2019-08-01T13:44:16Z</time>
      </trkpt>
      <trkpt lat="49.60604" lon="4.98922">
        <ele>311.12</ele>
        <time>2019-08-01T13:44:34Z</time>
      </trkpt>
      <trkpt lat="49.60608" lon="4.98921">
        <ele>311.6</ele>
        <time>2019-08-01T13:44:40Z</time>
      </trkpt>
      <trkpt lat="49.60625" lon="4.98914">
        <ele>310.16</ele>
        <time>2019-08-01T13:44:54Z</time>
      </trkpt>
      <trkpt lat="49.60639" lon="4.98901">
        <ele>306.32</ele>
        <time>2019-08-01T13:45:11Z</time>
      </trkpt>
      <trkpt lat="49.60651" lon="4.98882">
        <ele>305.36</ele>
        <time>2019-08-01T13:45:29Z</time>
      </trkpt>
      <trkpt lat="49.60662" lon="4.98863">
        <ele>303.43</ele>
        <time>2019-08-01T13:45:45Z</time>
      </trkpt>
      <trkpt lat="49.60673" lon="4.98843">
        <ele>302.47</ele>
        <time>2019-08-01T13:46:00Z</time>
      </trkpt>
      <trkpt lat="49.60684" lon="4.98819">
        <ele>306.32</ele>
        <time>2019-08-01T13:46:19Z</time>
      </trkpt>
      <trkpt lat="49.60697" lon="4.98792">
        <ele>306.8</ele>
        <time>2019-08-01T13:46:36Z</time>
      </trkpt>
      <trkpt lat="49.60708" lon="4.98766">
        <ele>305.84</ele>
        <time>2019-08-01T13:46:54Z</time>
      </trkpt>
      <trkpt lat="49.60718" lon="4.98742">
        <ele>304.88</ele>
        <time>2019-08-01T13:47:11Z</time>
      </trkpt>
      <trkpt lat="49.60728" lon="4.98709">
        <ele>303.91</ele>
        <time>2019-08-01T13:47:33Z</time>
      </trkpt>
      <trkpt lat="49.60731" lon="4.98702">
        <ele>303.43</ele>
        <time>2019-08-01T13:47:37Z</time>
      </trkpt>
      <trkpt lat="49.60746" lon="4.98674">
        <ele>302.95</ele>
        <time>2019-08-01T13:47:56Z</time>
      </trkpt>
      <trkpt lat="49.60757" lon="4.98654">
        <ele>304.88</ele>
        <time>2019-08-01T13:48:13Z</time>
      </trkpt>
      <trkpt lat="49.6076" lon="4.98649">
        <ele>304.88</ele>
        <time>2019-08-01T13:48:18Z</time>
      </trkpt>
      <trkpt lat="49.60768" lon="4.98635">
        <ele>306.8</ele>
        <time>2019-08-01T13:48:36Z</time>
      </trkpt>
      <trkpt lat="49.60778" lon="4.98622">
        <ele>305.36</ele>
        <time>2019-08-01T13:48:56Z</time>
      </trkpt>
      <trkpt lat="49.60794" lon="4.98593">
        <ele>308.72</ele>
        <time>2019-08-01T13:49:13Z</time>
      </trkpt>
      <trkpt lat="49.60806" lon="4.98566">
        <ele>309.68</ele>
        <time>2019-08-01T13:49:29Z</time>
      </trkpt>
      <trkpt lat="49.60812" lon="4.9855">
        <ele>311.6</ele>
        <time>2019-08-01T13:49:45Z</time>
      </trkpt>
      <trkpt lat="49.6082" lon="4.9853">
        <ele>313.05</ele>
        <time>2019-08-01T13:50:04Z</time>
      </trkpt>
      <trkpt lat="49.60839" lon="4.98494">
        <ele>310.16</ele>
        <time>2019-08-01T13:50:23Z</time>
      </trkpt>
      <trkpt lat="49.60848" lon="4.98478">
        <ele>306.8</ele>
        <time>2019-08-01T13:50:32Z</time>
      </trkpt>
      <trkpt lat="49.60862" lon="4.98444">
        <ele>300.55</ele>
        <time>2019-08-01T13:50:49Z</time>
      </trkpt>
      <trkpt lat="49.60873" lon="4.98416">
        <ele>299.59</ele>
        <time>2019-08-01T13:51:07Z</time>
      </trkpt>
      <trkpt lat="49.60878" lon="4.98396">
        <ele>299.59</ele>
        <time>2019-08-01T13:51:23Z</time>
      </trkpt>
      <trkpt lat="49.60886" lon="4.98374">
        <ele>301.51</ele>
        <time>2019-08-01T13:51:38Z</time>
      </trkpt>
      <trkpt lat="49.60894" lon="4.98354">
        <ele>303.43</ele>
        <time>2019-08-01T13:51:56Z</time>
      </trkpt>
      <trkpt lat="49.60903" lon="4.98321">
        <ele>305.84</ele>
        <time>2019-08-01T13:52:14Z</time>
      </trkpt>
      <trkpt lat="49.60912" lon="4.98295">
        <ele>311.12</ele>
        <time>2019-08-01T13:52:31Z</time>
      </trkpt>
      <trkpt lat="49.60923" lon="4.98269">
        <ele>319.3</ele>
        <time>2019-08-01T13:52:51Z</time>
      </trkpt>
      <trkpt lat="49.60932" lon="4.98247">
        <ele>324.1</ele>
        <time>2019-08-01T13:53:09Z</time>
      </trkpt>
      <trkpt lat="49.60944" lon="4.98219">
        <ele>321.22</ele>
        <time>2019-08-01T13:53:25Z</time>
      </trkpt>
      <trkpt lat="49.60954" lon="4.98198">
        <ele>324.1</ele>
        <time>2019-08-01T13:53:42Z</time>
      </trkpt>
      <trkpt lat="49.60967" lon="4.9818">
        <ele>327.47</ele>
        <time>2019-08-01T13:54:01Z</time>
      </trkpt>
      <trkpt lat="49.60981" lon="4.98158">
        <ele>328.43</ele>
        <time>2019-08-01T13:54:19Z</time>
      </trkpt>
      <trkpt lat="49.60993" lon="4.98133">
        <ele>327.47</ele>
        <time>2019-08-01T13:54:35Z</time>
      </trkpt>
      <trkpt lat="49.61005" lon="4.98116">
        <ele>324.1</ele>
        <time>2019-08-01T13:54:52Z</time>
      </trkpt>
      <trkpt lat="49.6101" lon="4.98106">
        <ele>321.7</ele>
        <time>2019-08-01T13:55:14Z</time>
      </trkpt>
      <trkpt lat="49.61017" lon="4.98087">
        <ele>323.14</ele>
        <time>2019-08-01T13:55:32Z</time>
      </trkpt>
      <trkpt lat="49.61025" lon="4.98073">
        <ele>324.1</ele>
        <time>2019-08-01T13:55:49Z</time>
      </trkpt>
      <trkpt lat="49.61039" lon="4.98056">
        <ele>324.58</ele>
        <time>2019-08-01T13:56:05Z</time>
      </trkpt>
      <trkpt lat="49.61053" lon="4.98032">
        <ele>324.1</ele>
        <time>2019-08-01T13:56:22Z</time>
      </trkpt>
      <trkpt lat="49.61068" lon="4.98011">
        <ele>322.18</ele>
        <time>2019-08-01T13:56:37Z</time>
      </trkpt>
      <trkpt lat="49.61083" lon="4.97988">
        <ele>319.78</ele>
        <time>2019-08-01T13:56:52Z</time>
      </trkpt>
      <trkpt lat="49.61095" lon="4.97968">
        <ele>318.81</ele>
        <time>2019-08-01T13:57:08Z</time>
      </trkpt>
      <trkpt lat="49.61106" lon="4.97946">
        <ele>315.45</ele>
        <time>2019-08-01T13:57:27Z</time>
      </trkpt>
      <trkpt lat="49.61121" lon="4.97921">
        <ele>309.68</ele>
        <time>2019-08-01T13:57:44Z</time>
      </trkpt>
      <trkpt lat="49.61134" lon="4.979">
        <ele>304.39</ele>
        <time>2019-08-01T13:58:02Z</time>
      </trkpt>
      <trkpt lat="49.61147" lon="4.97885">
        <ele>302.95</ele>
        <time>2019-08-01T13:58:17Z</time>
      </trkpt>
      <trkpt lat="49.61162" lon="4.97865">
        <ele>300.55</ele>
        <time>2019-08-01T13:58:35Z</time>
      </trkpt>
      <trkpt lat="49.61175" lon="4.9785">
        <ele>300.07</ele>
        <time>2019-08-01T13:58:51Z</time>
      </trkpt>
      <trkpt lat="49.61189" lon="4.97826">
        <ele>300.07</ele>
        <time>2019-08-01T13:59:09Z</time>
      </trkpt>
      <trkpt lat="49.61208" lon="4.97811">
        <ele>300.55</ele>
        <time>2019-08-01T13:59:25Z</time>
      </trkpt>
      <trkpt lat="49.61212" lon="4.97807">
        <ele>300.55</ele>
        <time>2019-08-01T13:59:29Z</time>
      </trkpt>
      <trkpt lat="49.61224" lon="4.97786">
        <ele>295.74</ele>
        <time>2019-08-01T13:59:48Z</time>
      </trkpt>
      <trkpt lat="49.61235" lon="4.97781">
        <ele>289.97</ele>
        <time>2019-08-01T14:00:01Z</time>
      </trkpt>
      <trkpt lat="49.61236" lon="4.97782">
        <ele>289.49</ele>
        <time>2019-08-01T14:00:17Z</time>
      </trkpt>
      <trkpt lat="49.61239" lon="4.9778">
        <ele>289.49</ele>
        <time>2019-08-01T14:00:20Z</time>
      </trkpt>
      <trkpt lat="49.61254" lon="4.97772">
        <ele>288.53</ele>
        <time>2019-08-01T14:00:37Z</time>
      </trkpt>
      <trkpt lat="49.61264" lon="4.97765">
        <ele>289.49</ele>
        <time>2019-08-01T14:00:49Z</time>
      </trkpt>
      <trkpt lat="49.61276" lon="4.97757">
        <ele>285.65</ele>
        <time>2019-08-01T14:01:06Z</time>
      </trkpt>
      <trkpt lat="49.61287" lon="4.97747">
        <ele>283.25</ele>
        <time>2019-08-01T14:01:19Z</time>
      </trkpt>
      <trkpt lat="49.61294" lon="4.97743">
        <ele>280.36</ele>
        <time>2019-08-01T14:01:27Z</time>
      </trkpt>
      <trkpt lat="49.613" lon="4.9774">
        <ele>278.92</ele>
        <time>2019-08-01T14:01:32Z</time>
      </trkpt>
      <trkpt lat="49.61311" lon="4.97731">
        <ele>277</ele>
        <time>2019-08-01T14:01:46Z</time>
      </trkpt>
      <trkpt lat="49.61321" lon="4.97723">
        <ele>276.52</ele>
        <time>2019-08-01T14:01:57Z</time>
      </trkpt>
      <trkpt lat="49.61333" lon="4.97712">
        <ele>275.56</ele>
        <time>2019-08-01T14:02:12Z</time>
      </trkpt>
      <trkpt lat="49.61344" lon="4.97705">
        <ele>276.52</ele>
        <time>2019-08-01T14:02:25Z</time>
      </trkpt>
      <trkpt lat="49.6135" lon="4.97693">
        <ele>275.56</ele>
        <time>2019-08-01T14:02:37Z</time>
      </trkpt>
      <trkpt lat="49.61362" lon="4.97682">
        <ele>276.04</ele>
        <time>2019-08-01T14:02:52Z</time>
      </trkpt>
      <trkpt lat="49.61374" lon="4.97675">
        <ele>273.63</ele>
        <time>2019-08-01T14:03:04Z</time>
      </trkpt>
      <trkpt lat="49.61385" lon="4.97663">
        <ele>271.71</ele>
        <time>2019-08-01T14:03:17Z</time>
      </trkpt>
      <trkpt lat="49.61396" lon="4.97653">
        <ele>269.79</ele>
        <time>2019-08-01T14:03:32Z</time>
      </trkpt>
      <trkpt lat="49.61411" lon="4.97636">
        <ele>267.86</ele>
        <time>2019-08-01T14:03:50Z</time>
      </trkpt>
      <trkpt lat="49.6142" lon="4.97624">
        <ele>265.94</ele>
        <time>2019-08-01T14:04:02Z</time>
      </trkpt>
      <trkpt lat="49.61431" lon="4.97612">
        <ele>265.46</ele>
        <time>2019-08-01T14:04:18Z</time>
      </trkpt>
      <trkpt lat="49.61433" lon="4.9761">
        <ele>264.98</ele>
        <time>2019-08-01T14:04:20Z</time>
      </trkpt>
      <trkpt lat="49.61444" lon="4.97591">
        <ele>263.54</ele>
        <time>2019-08-01T14:04:36Z</time>
      </trkpt>
      <trkpt lat="49.61456" lon="4.97577">
        <ele>263.06</ele>
        <time>2019-08-01T14:04:53Z</time>
      </trkpt>
      <trkpt lat="49.61471" lon="4.97557">
        <ele>260.65</ele>
        <time>2019-08-01T14:05:10Z</time>
      </trkpt>
      <trkpt lat="49.61472" lon="4.97556">
        <ele>261.14</ele>
        <time>2019-08-01T14:05:11Z</time>
      </trkpt>
      <trkpt lat="49.61476" lon="4.97551">
        <ele>260.65</ele>
        <time>2019-08-01T14:05:16Z</time>
      </trkpt>
      <trkpt lat="49.61485" lon="4.97537">
        <ele>258.73</ele>
        <time>2019-08-01T14:05:32Z</time>
      </trkpt>
      <trkpt lat="49.61499" lon="4.97522">
        <ele>258.73</ele>
        <time>2019-08-01T14:05:51Z</time>
      </trkpt>
      <trkpt lat="49.61511" lon="4.97508">
        <ele>255.85</ele>
        <time>2019-08-01T14:06:04Z</time>
      </trkpt>
      <trkpt lat="49.61523" lon="4.97488">
        <ele>254.89</ele>
        <time>2019-08-01T14:06:21Z</time>
      </trkpt>
      <trkpt lat="49.61533" lon="4.97471">
        <ele>252</ele>
        <time>2019-08-01T14:06:38Z</time>
      </trkpt>
      <trkpt lat="49.61549" lon="4.97448">
        <ele>252</ele>
        <time>2019-08-01T14:06:57Z</time>
      </trkpt>
      <trkpt lat="49.6156" lon="4.97429">
        <ele>251.52</ele>
        <time>2019-08-01T14:07:13Z</time>
      </trkpt>
      <trkpt lat="49.61577" lon="4.97402">
        <ele>251.04</ele>
        <time>2019-08-01T14:07:32Z</time>
      </trkpt>
      <trkpt lat="49.61592" lon="4.97383">
        <ele>249.6</ele>
        <time>2019-08-01T14:07:47Z</time>
      </trkpt>
      <trkpt lat="49.61602" lon="4.97365">
        <ele>249.12</ele>
        <time>2019-08-01T14:08:03Z</time>
      </trkpt>
      <trkpt lat="49.61617" lon="4.97342">
        <ele>250.08</ele>
        <time>2019-08-01T14:08:21Z</time>
      </trkpt>
      <trkpt lat="49.6163" lon="4.97324">
        <ele>250.08</ele>
        <time>2019-08-01T14:08:39Z</time>
      </trkpt>
      <trkpt lat="49.61644" lon="4.97307">
        <ele>250.08</ele>
        <time>2019-08-01T14:08:55Z</time>
      </trkpt>
      <trkpt lat="49.61657" lon="4.97289">
        <ele>250.08</ele>
        <time>2019-08-01T14:09:11Z</time>
      </trkpt>
      <trkpt lat="49.61669" lon="4.97276">
        <ele>249.6</ele>
        <time>2019-08-01T14:09:27Z</time>
      </trkpt>
      <trkpt lat="49.61685" lon="4.9725">
        <ele>249.6</ele>
        <time>2019-08-01T14:09:45Z</time>
      </trkpt>
      <trkpt lat="49.61693" lon="4.97232">
        <ele>247.2</ele>
        <time>2019-08-01T14:10:00Z</time>
      </trkpt>
      <trkpt lat="49.61706" lon="4.97208">
        <ele>247.2</ele>
        <time>2019-08-01T14:10:17Z</time>
      </trkpt>
      <trkpt lat="49.61712" lon="4.972">
        <ele>248.64</ele>
        <time>2019-08-01T14:10:27Z</time>
      </trkpt>
      <trkpt lat="49.61729" lon="4.9718">
        <ele>248.16</ele>
        <time>2019-08-01T14:10:45Z</time>
      </trkpt>
      <trkpt lat="49.61743" lon="4.97161">
        <ele>245.27</ele>
        <time>2019-08-01T14:11:04Z</time>
      </trkpt>
      <trkpt lat="49.61749" lon="4.97156">
        <ele>245.27</ele>
        <time>2019-08-01T14:11:10Z</time>
      </trkpt>
      <trkpt lat="49.61756" lon="4.97171">
        <ele>245.27</ele>
        <time>2019-08-01T14:11:25Z</time>
      </trkpt>
      <trkpt lat="49.61763" lon="4.97199">
        <ele>246.23</ele>
        <time>2019-08-01T14:11:42Z</time>
      </trkpt>
      <trkpt lat="49.6177" lon="4.97228">
        <ele>247.2</ele>
        <time>2019-08-01T14:11:58Z</time>
      </trkpt>
      <trkpt lat="49.61778" lon="4.97251">
        <ele>251.52</ele>
        <time>2019-08-01T14:12:13Z</time>
      </trkpt>
      <trkpt lat="49.61784" lon="4.97278">
        <ele>255.85</ele>
        <time>2019-08-01T14:12:27Z</time>
      </trkpt>
      <trkpt lat="49.61787" lon="4.97288">
        <ele>257.29</ele>
        <time>2019-08-01T14:12:38Z</time>
      </trkpt>
      <trkpt lat="49.61793" lon="4.97309">
        <ele>258.25</ele>
        <time>2019-08-01T14:12:51Z</time>
      </trkpt>
      <trkpt lat="49.61798" lon="4.97332">
        <ele>259.69</ele>
        <time>2019-08-01T14:13:05Z</time>
      </trkpt>
      <trkpt lat="49.61805" lon="4.97353">
        <ele>260.17</ele>
        <time>2019-08-01T14:13:18Z</time>
      </trkpt>
      <trkpt lat="49.6181" lon="4.97374">
        <ele>260.17</ele>
        <time>2019-08-01T14:13:31Z</time>
      </trkpt>
      <trkpt lat="49.61815" lon="4.97396">
        <ele>262.58</ele>
        <time>2019-08-01T14:13:45Z</time>
      </trkpt>
      <trkpt lat="49.61821" lon="4.97416">
        <ele>263.06</ele>
        <time>2019-08-01T14:13:58Z</time>
      </trkpt>
      <trkpt lat="49.61828" lon="4.97426">
        <ele>262.1</ele>
        <time>2019-08-01T14:14:17Z</time>
      </trkpt>
      <trkpt lat="49.6184" lon="4.9744">
        <ele>260.17</ele>
        <time>2019-08-01T14:14:32Z</time>
      </trkpt>
      <trkpt lat="49.61853" lon="4.97454">
        <ele>261.62</ele>
        <time>2019-08-01T14:14:47Z</time>
      </trkpt>
      <trkpt lat="49.61865" lon="4.9747">
        <ele>261.62</ele>
        <time>2019-08-01T14:15:01Z</time>
      </trkpt>
      <trkpt lat="49.61876" lon="4.97486">
        <ele>263.06</ele>
        <time>2019-08-01T14:15:15Z</time>
      </trkpt>
      <trkpt lat="49.61887" lon="4.97497">
        <ele>264.98</ele>
        <time>2019-08-01T14:15:29Z</time>
      </trkpt>
      <trkpt lat="49.61903" lon="4.97503">
        <ele>266.9</ele>
        <time>2019-08-01T14:15:43Z</time>
      </trkpt>
      <trkpt lat="49.61919" lon="4.97504">
        <ele>268.35</ele>
        <time>2019-08-01T14:15:57Z</time>
      </trkpt>
      <trkpt lat="49.61932" lon="4.97503">
        <ele>269.31</ele>
        <time>2019-08-01T14:16:10Z</time>
      </trkpt>
      <trkpt lat="49.61944" lon="4.97502">
        <ele>269.79</ele>
        <time>2019-08-01T14:16:23Z</time>
      </trkpt>
      <trkpt lat="49.61958" lon="4.97502">
        <ele>270.75</ele>
        <time>2019-08-01T14:16:36Z</time>
      </trkpt>
      <trkpt lat="49.61973" lon="4.97504">
        <ele>271.71</ele>
        <time>2019-08-01T14:16:50Z</time>
      </trkpt>
      <trkpt lat="49.61991" lon="4.97503">
        <ele>272.67</ele>
        <time>2019-08-01T14:17:05Z</time>
      </trkpt>
      <trkpt lat="49.62008" lon="4.97504">
        <ele>273.63</ele>
        <time>2019-08-01T14:17:20Z</time>
      </trkpt>
      <trkpt lat="49.62023" lon="4.97504">
        <ele>273.63</ele>
        <time>2019-08-01T14:17:34Z</time>
      </trkpt>
      <trkpt lat="49.62028" lon="4.97504">
        <ele>273.63</ele>
        <time>2019-08-01T14:17:42Z</time>
      </trkpt>
      <trkpt lat="49.62034" lon="4.9751">
        <ele>273.63</ele>
        <time>2019-08-01T14:17:57Z</time>
      </trkpt>
      <trkpt lat="49.62034" lon="4.97511">
        <ele>273.63</ele>
        <time>2019-08-01T14:18:09Z</time>
      </trkpt>
      <trkpt lat="49.62036" lon="4.97524">
        <ele>274.11</ele>
        <time>2019-08-01T14:18:17Z</time>
      </trkpt>
      <trkpt lat="49.62035" lon="4.97544">
        <ele>276.04</ele>
        <time>2019-08-01T14:18:30Z</time>
      </trkpt>
      <trkpt lat="49.62032" lon="4.9757">
        <ele>277.48</ele>
        <time>2019-08-01T14:18:46Z</time>
      </trkpt>
      <trkpt lat="49.62031" lon="4.97593">
        <ele>277.48</ele>
        <time>2019-08-01T14:19:00Z</time>
      </trkpt>
      <trkpt lat="49.6203" lon="4.97617">
        <ele>277.48</ele>
        <time>2019-08-01T14:19:15Z</time>
      </trkpt>
      <trkpt lat="49.62028" lon="4.97645">
        <ele>279.4</ele>
        <time>2019-08-01T14:19:31Z</time>
      </trkpt>
      <trkpt lat="49.62027" lon="4.97669">
        <ele>282.28</ele>
        <time>2019-08-01T14:19:46Z</time>
      </trkpt>
      <trkpt lat="49.62022" lon="4.97694">
        <ele>282.28</ele>
        <time>2019-08-01T14:20:03Z</time>
      </trkpt>
      <trkpt lat="49.62019" lon="4.97717">
        <ele>281.32</ele>
        <time>2019-08-01T14:20:17Z</time>
      </trkpt>
      <trkpt lat="49.62015" lon="4.97739">
        <ele>281.32</ele>
        <time>2019-08-01T14:20:31Z</time>
      </trkpt>
      <trkpt lat="49.62013" lon="4.97748">
        <ele>280.84</ele>
        <time>2019-08-01T14:20:36Z</time>
      </trkpt>
      <trkpt lat="49.62008" lon="4.97775">
        <ele>281.8</ele>
        <time>2019-08-01T14:20:53Z</time>
      </trkpt>
      <trkpt lat="49.62003" lon="4.978">
        <ele>280.84</ele>
        <time>2019-08-01T14:21:09Z</time>
      </trkpt>
      <trkpt lat="49.61999" lon="4.97823">
        <ele>279.88</ele>
        <time>2019-08-01T14:21:25Z</time>
      </trkpt>
      <trkpt lat="49.61994" lon="4.97846">
        <ele>278.44</ele>
        <time>2019-08-01T14:21:40Z</time>
      </trkpt>
      <trkpt lat="49.61986" lon="4.97869">
        <ele>277.96</ele>
        <time>2019-08-01T14:21:56Z</time>
      </trkpt>
      <trkpt lat="49.61977" lon="4.97888">
        <ele>277</ele>
        <time>2019-08-01T14:22:11Z</time>
      </trkpt>
      <trkpt lat="49.61967" lon="4.97908">
        <ele>277</ele>
        <time>2019-08-01T14:22:27Z</time>
      </trkpt>
      <trkpt lat="49.61966" lon="4.97909">
        <ele>277</ele>
        <time>2019-08-01T14:22:28Z</time>
      </trkpt>
      <trkpt lat="49.61953" lon="4.9793">
        <ele>277.96</ele>
        <time>2019-08-01T14:22:46Z</time>
      </trkpt>
      <trkpt lat="49.61939" lon="4.97949">
        <ele>277.48</ele>
        <time>2019-08-01T14:23:03Z</time>
      </trkpt>
      <trkpt lat="49.61926" lon="4.97966">
        <ele>277.96</ele>
        <time>2019-08-01T14:23:18Z</time>
      </trkpt>
      <trkpt lat="49.61914" lon="4.97985">
        <ele>278.92</ele>
        <time>2019-08-01T14:23:34Z</time>
      </trkpt>
      <trkpt lat="49.61905" lon="4.97998">
        <ele>280.36</ele>
        <time>2019-08-01T14:23:47Z</time>
      </trkpt>
      <trkpt lat="49.61903" lon="4.98">
        <ele>280.84</ele>
        <time>2019-08-01T14:23:50Z</time>
      </trkpt>
      <trkpt lat="49.61895" lon="4.98015">
        <ele>281.32</ele>
        <time>2019-08-01T14:24:03Z</time>
      </trkpt>
      <trkpt lat="49.61887" lon="4.98032">
        <ele>281.8</ele>
        <time>2019-08-01T14:24:16Z</time>
      </trkpt>
      <trkpt lat="49.61885" lon="4.98038">
        <ele>282.28</ele>
        <time>2019-08-01T14:24:21Z</time>
      </trkpt>
      <trkpt lat="49.61883" lon="4.98041">
        <ele>282.28</ele>
        <time>2019-08-01T14:24:23Z</time>
      </trkpt>
      <trkpt lat="49.61882" lon="4.98046">
        <ele>282.28</ele>
        <time>2019-08-01T14:24:27Z</time>
      </trkpt>
      <trkpt lat="49.61874" lon="4.98065">
        <ele>284.21</ele>
        <time>2019-08-01T14:24:41Z</time>
      </trkpt>
      <trkpt lat="49.61869" lon="4.98075">
        <ele>285.17</ele>
        <time>2019-08-01T14:24:51Z</time>
      </trkpt>
      <trkpt lat="49.61862" lon="4.98091">
        <ele>285.17</ele>
        <time>2019-08-01T14:25:03Z</time>
      </trkpt>
      <trkpt lat="49.61855" lon="4.98107">
        <ele>285.65</ele>
        <time>2019-08-01T14:25:16Z</time>
      </trkpt>
      <trkpt lat="49.61849" lon="4.98122">
        <ele>285.65</ele>
        <time>2019-08-01T14:25:28Z</time>
      </trkpt>
      <trkpt lat="49.61842" lon="4.98137">
        <ele>288.05</ele>
        <time>2019-08-01T14:25:41Z</time>
      </trkpt>
      <trkpt lat="49.61839" lon="4.98151">
        <ele>289.49</ele>
        <time>2019-08-01T14:25:51Z</time>
      </trkpt>
      <trkpt lat="49.61834" lon="4.9816">
        <ele>290.46</ele>
        <time>2019-08-01T14:25:58Z</time>
      </trkpt>
      <trkpt lat="49.61831" lon="4.98181">
        <ele>291.9</ele>
        <time>2019-08-01T14:26:13Z</time>
      </trkpt>
      <trkpt lat="49.61837" lon="4.98185">
        <ele>291.9</ele>
        <time>2019-08-01T14:26:25Z</time>
      </trkpt>
      <trkpt lat="49.61836" lon="4.98185">
        <ele>291.9</ele>
        <time>2019-08-01T14:26:43Z</time>
      </trkpt>
      <trkpt lat="49.61836" lon="4.98183">
        <ele>292.38</ele>
        <time>2019-08-01T14:27:06Z</time>
      </trkpt>
      <trkpt lat="49.61836" lon="4.98185">
        <ele>291.9</ele>
        <time>2019-08-01T14:27:28Z</time>
      </trkpt>
      <trkpt lat="49.61836" lon="4.98186">
        <ele>291.42</ele>
        <time>2019-08-01T14:27:54Z</time>
      </trkpt>
      <trkpt lat="49.61836" lon="4.98186">
        <ele>291.42</ele>
        <time>2019-08-01T14:28:24Z</time>
      </trkpt>
      <trkpt lat="49.61836" lon="4.98187">
        <ele>290.94</ele>
        <time>2019-08-01T14:28:53Z</time>
      </trkpt>
      <trkpt lat="49.61836" lon="4.98186">
        <ele>290.94</ele>
        <time>2019-08-01T14:29:12Z</time>
      </trkpt>
      <trkpt lat="49.61835" lon="4.98186">
        <ele>291.9</ele>
        <time>2019-08-01T14:29:39Z</time>
      </trkpt>
      <trkpt lat="49.61836" lon="4.98186">
        <ele>292.38</ele>
        <time>2019-08-01T14:30:02Z</time>
      </trkpt>
      <trkpt lat="49.61835" lon="4.98185">
        <ele>292.38</ele>
        <time>2019-08-01T14:30:30Z</time>
      </trkpt>
      <trkpt lat="49.61835" lon="4.98185">
        <ele>291.9</ele>
        <time>2019-08-01T14:30:52Z</time>
      </trkpt>
      <trkpt lat="49.6184" lon="4.9818">
        <ele>290.94</ele>
        <time>2019-08-01T14:31:08Z</time>
      </trkpt>
      <trkpt lat="49.6185" lon="4.98174">
        <ele>287.57</ele>
        <time>2019-08-01T14:31:23Z</time>
      </trkpt>
      <trkpt lat="49.61864" lon="4.98171">
        <ele>284.21</ele>
        <time>2019-08-01T14:31:42Z</time>
      </trkpt>
      <trkpt lat="49.61876" lon="4.98167">
        <ele>282.28</ele>
        <time>2019-08-01T14:31:58Z</time>
      </trkpt>
      <trkpt lat="49.61887" lon="4.98164">
        <ele>280.84</ele>
        <time>2019-08-01T14:32:14Z</time>
      </trkpt>
      <trkpt lat="49.61901" lon="4.98165">
        <ele>277.48</ele>
        <time>2019-08-01T14:32:31Z</time>
      </trkpt>
      <trkpt lat="49.61915" lon="4.98169">
        <ele>276.04</ele>
        <time>2019-08-01T14:32:49Z</time>
      </trkpt>
      <trkpt lat="49.61924" lon="4.98171">
        <ele>277</ele>
        <time>2019-08-01T14:33:04Z</time>
      </trkpt>
      <trkpt lat="49.61939" lon="4.98174">
        <ele>276.52</ele>
        <time>2019-08-01T14:33:20Z</time>
      </trkpt>
      <trkpt lat="49.61953" lon="4.98178">
        <ele>277</ele>
        <time>2019-08-01T14:33:34Z</time>
      </trkpt>
      <trkpt lat="49.61967" lon="4.98186">
        <ele>276.52</ele>
        <time>2019-08-01T14:33:49Z</time>
      </trkpt>
      <trkpt lat="49.61983" lon="4.98194">
        <ele>279.88</ele>
        <time>2019-08-01T14:34:07Z</time>
      </trkpt>
      <trkpt lat="49.61994" lon="4.98201">
        <ele>284.21</ele>
        <time>2019-08-01T14:34:21Z</time>
      </trkpt>
      <trkpt lat="49.6201" lon="4.9821">
        <ele>286.13</ele>
        <time>2019-08-01T14:34:38Z</time>
      </trkpt>
      <trkpt lat="49.6202" lon="4.98214">
        <ele>286.13</ele>
        <time>2019-08-01T14:34:49Z</time>
      </trkpt>
      <trkpt lat="49.62037" lon="4.98219">
        <ele>281.8</ele>
        <time>2019-08-01T14:35:06Z</time>
      </trkpt>
      <trkpt lat="49.62048" lon="4.98223">
        <ele>280.36</ele>
        <time>2019-08-01T14:35:20Z</time>
      </trkpt>
      <trkpt lat="49.62066" lon="4.98228">
        <ele>279.4</ele>
        <time>2019-08-01T14:35:36Z</time>
      </trkpt>
      <trkpt lat="49.6208" lon="4.98236">
        <ele>277.48</ele>
        <time>2019-08-01T14:35:50Z</time>
      </trkpt>
      <trkpt lat="49.62095" lon="4.98247">
        <ele>276.52</ele>
        <time>2019-08-01T14:36:06Z</time>
      </trkpt>
      <trkpt lat="49.62107" lon="4.98258">
        <ele>273.63</ele>
        <time>2019-08-01T14:36:21Z</time>
      </trkpt>
      <trkpt lat="49.62119" lon="4.98269">
        <ele>271.23</ele>
        <time>2019-08-01T14:36:35Z</time>
      </trkpt>
      <trkpt lat="49.62133" lon="4.98278">
        <ele>269.31</ele>
        <time>2019-08-01T14:36:50Z</time>
      </trkpt>
      <trkpt lat="49.62144" lon="4.98286">
        <ele>265.46</ele>
        <time>2019-08-01T14:37:02Z</time>
      </trkpt>
      <trkpt lat="49.62151" lon="4.98289">
        <ele>263.54</ele>
        <time>2019-08-01T14:37:09Z</time>
      </trkpt>
      <trkpt lat="49.62159" lon="4.98291">
        <ele>262.58</ele>
        <time>2019-08-01T14:37:18Z</time>
      </trkpt>
      <trkpt lat="49.62174" lon="4.98293">
        <ele>261.14</ele>
        <time>2019-08-01T14:37:34Z</time>
      </trkpt>
      <trkpt lat="49.62188" lon="4.98297">
        <ele>259.69</ele>
        <time>2019-08-01T14:37:49Z</time>
      </trkpt>
      <trkpt lat="49.62199" lon="4.98303">
        <ele>257.29</ele>
        <time>2019-08-01T14:38:05Z</time>
      </trkpt>
      <trkpt lat="49.62205" lon="4.98307">
        <ele>258.73</ele>
        <time>2019-08-01T14:38:13Z</time>
      </trkpt>
      <trkpt lat="49.62222" lon="4.98316">
        <ele>259.69</ele>
        <time>2019-08-01T14:38:30Z</time>
      </trkpt>
      <trkpt lat="49.62233" lon="4.98322">
        <ele>261.14</ele>
        <time>2019-08-01T14:38:46Z</time>
      </trkpt>
      <trkpt lat="49.62246" lon="4.98334">
        <ele>262.58</ele>
        <time>2019-08-01T14:39:03Z</time>
      </trkpt>
      <trkpt lat="49.6226" lon="4.98348">
        <ele>266.42</ele>
        <time>2019-08-01T14:39:18Z</time>
      </trkpt>
      <trkpt lat="49.62266" lon="4.98356">
        <ele>268.35</ele>
        <time>2019-08-01T14:39:25Z</time>
      </trkpt>
      <trkpt lat="49.62276" lon="4.98373">
        <ele>271.71</ele>
        <time>2019-08-01T14:39:42Z</time>
      </trkpt>
      <trkpt lat="49.62279" lon="4.98382">
        <ele>271.71</ele>
        <time>2019-08-01T14:39:48Z</time>
      </trkpt>
      <trkpt lat="49.62286" lon="4.98394">
        <ele>273.15</ele>
        <time>2019-08-01T14:39:59Z</time>
      </trkpt>
      <trkpt lat="49.62297" lon="4.98413">
        <ele>270.75</ele>
        <time>2019-08-01T14:40:17Z</time>
      </trkpt>
      <trkpt lat="49.6231" lon="4.98429">
        <ele>266.9</ele>
        <time>2019-08-01T14:40:33Z</time>
      </trkpt>
      <trkpt lat="49.62323" lon="4.98439">
        <ele>266.42</ele>
        <time>2019-08-01T14:40:49Z</time>
      </trkpt>
      <trkpt lat="49.62329" lon="4.98442">
        <ele>264.98</ele>
        <time>2019-08-01T14:40:59Z</time>
      </trkpt>
      <trkpt lat="49.62341" lon="4.98454">
        <ele>266.42</ele>
        <time>2019-08-01T14:41:13Z</time>
      </trkpt>
      <trkpt lat="49.62351" lon="4.9846">
        <ele>265.46</ele>
        <time>2019-08-01T14:41:24Z</time>
      </trkpt>
      <trkpt lat="49.62357" lon="4.98464">
        <ele>264.98</ele>
        <time>2019-08-01T14:41:30Z</time>
      </trkpt>
      <trkpt lat="49.62361" lon="4.98468">
        <ele>264.98</ele>
        <time>2019-08-01T14:41:34Z</time>
      </trkpt>
      <trkpt lat="49.62374" lon="4.98473">
        <ele>264.98</ele>
        <time>2019-08-01T14:41:48Z</time>
      </trkpt>
      <trkpt lat="49.62387" lon="4.9848">
        <ele>262.58</ele>
        <time>2019-08-01T14:42:05Z</time>
      </trkpt>
      <trkpt lat="49.6239" lon="4.98483">
        <ele>263.06</ele>
        <time>2019-08-01T14:42:09Z</time>
      </trkpt>
      <trkpt lat="49.62393" lon="4.98485">
        <ele>263.06</ele>
        <time>2019-08-01T14:42:12Z</time>
      </trkpt>
      <trkpt lat="49.62407" lon="4.98494">
        <ele>263.06</ele>
        <time>2019-08-01T14:42:28Z</time>
      </trkpt>
      <trkpt lat="49.62422" lon="4.98505">
        <ele>262.1</ele>
        <time>2019-08-01T14:42:44Z</time>
      </trkpt>
      <trkpt lat="49.62435" lon="4.98515">
        <ele>258.25</ele>
        <time>2019-08-01T14:43:00Z</time>
      </trkpt>
      <trkpt lat="49.62453" lon="4.98527">
        <ele>257.29</ele>
        <time>2019-08-01T14:43:17Z</time>
      </trkpt>
      <trkpt lat="49.62467" lon="4.98536">
        <ele>256.81</ele>
        <time>2019-08-01T14:43:32Z</time>
      </trkpt>
      <trkpt lat="49.62483" lon="4.98548">
        <ele>254.89</ele>
        <time>2019-08-01T14:43:50Z</time>
      </trkpt>
      <trkpt lat="49.62498" lon="4.98557">
        <ele>252</ele>
        <time>2019-08-01T14:44:07Z</time>
      </trkpt>
      <trkpt lat="49.625" lon="4.98559">
        <ele>252</ele>
        <time>2019-08-01T14:44:09Z</time>
      </trkpt>
      <trkpt lat="49.62505" lon="4.98561">
        <ele>251.52</ele>
        <time>2019-08-01T14:44:13Z</time>
      </trkpt>
      <trkpt lat="49.62524" lon="4.98564">
        <ele>249.6</ele>
        <time>2019-08-01T14:44:32Z</time>
      </trkpt>
      <trkpt lat="49.62527" lon="4.98564">
        <ele>249.6</ele>
        <time>2019-08-01T14:44:34Z</time>
      </trkpt>
      <trkpt lat="49.62542" lon="4.98559">
        <ele>249.12</ele>
        <time>2019-08-01T14:44:50Z</time>
      </trkpt>
      <trkpt lat="49.62543" lon="4.98559">
        <ele>249.12</ele>
        <time>2019-08-01T14:44:51Z</time>
      </trkpt>
      <trkpt lat="49.62547" lon="4.98562">
        <ele>249.12</ele>
        <time>2019-08-01T14:44:57Z</time>
      </trkpt>
      <trkpt lat="49.62549" lon="4.98572">
        <ele>250.56</ele>
        <time>2019-08-01T14:45:07Z</time>
      </trkpt>
      <trkpt lat="49.6255" lon="4.98578">
        <ele>251.04</ele>
        <time>2019-08-01T14:45:12Z</time>
      </trkpt>
      <trkpt lat="49.62552" lon="4.98583">
        <ele>251.04</ele>
        <time>2019-08-01T14:45:17Z</time>
      </trkpt>
      <trkpt lat="49.62557" lon="4.98585">
        <ele>252</ele>
        <time>2019-08-01T14:45:23Z</time>
      </trkpt>
      <trkpt lat="49.62567" lon="4.98579">
        <ele>252.48</ele>
        <time>2019-08-01T14:45:37Z</time>
      </trkpt>
      <trkpt lat="49.62575" lon="4.98572">
        <ele>251.52</ele>
        <time>2019-08-01T14:45:47Z</time>
      </trkpt>
      <trkpt lat="49.62579" lon="4.98569">
        <ele>250.56</ele>
        <time>2019-08-01T14:45:51Z</time>
      </trkpt>
      <trkpt lat="49.62591" lon="4.9856">
        <ele>249.6</ele>
        <time>2019-08-01T14:46:06Z</time>
      </trkpt>
      <trkpt lat="49.62606" lon="4.9855">
        <ele>248.16</ele>
        <time>2019-08-01T14:46:23Z</time>
      </trkpt>
      <trkpt lat="49.6262" lon="4.98539">
        <ele>245.75</ele>
        <time>2019-08-01T14:46:40Z</time>
      </trkpt>
      <trkpt lat="49.62635" lon="4.98526">
        <ele>243.83</ele>
        <time>2019-08-01T14:46:58Z</time>
      </trkpt>
      <trkpt lat="49.62651" lon="4.98513">
        <ele>244.31</ele>
        <time>2019-08-01T14:47:15Z</time>
      </trkpt>
      <trkpt lat="49.62665" lon="4.98502">
        <ele>243.35</ele>
        <time>2019-08-01T14:47:31Z</time>
      </trkpt>
      <trkpt lat="49.62671" lon="4.98499">
        <ele>245.27</ele>
        <time>2019-08-01T14:47:40Z</time>
      </trkpt>
      <trkpt lat="49.62687" lon="4.98484">
        <ele>243.83</ele>
        <time>2019-08-01T14:47:57Z</time>
      </trkpt>
      <trkpt lat="49.62697" lon="4.98476">
        <ele>242.87</ele>
        <time>2019-08-01T14:48:09Z</time>
      </trkpt>
      <trkpt lat="49.62708" lon="4.98465">
        <ele>243.35</ele>
        <time>2019-08-01T14:48:23Z</time>
      </trkpt>
      <trkpt lat="49.62709" lon="4.98464">
        <ele>243.35</ele>
        <time>2019-08-01T14:48:24Z</time>
      </trkpt>
      <trkpt lat="49.6272" lon="4.98455">
        <ele>242.39</ele>
        <time>2019-08-01T14:48:39Z</time>
      </trkpt>
      <trkpt lat="49.62725" lon="4.98451">
        <ele>242.39</ele>
        <time>2019-08-01T14:48:45Z</time>
      </trkpt>
      <trkpt lat="49.62739" lon="4.98441">
        <ele>242.87</ele>
        <time>2019-08-01T14:49:02Z</time>
      </trkpt>
      <trkpt lat="49.6275" lon="4.9843">
        <ele>240.95</ele>
        <time>2019-08-01T14:49:17Z</time>
      </trkpt>
      <trkpt lat="49.62762" lon="4.98422">
        <ele>240.95</ele>
        <time>2019-08-01T14:49:33Z</time>
      </trkpt>
      <trkpt lat="49.6277" lon="4.98416">
        <ele>239.51</ele>
        <time>2019-08-01T14:49:48Z</time>
      </trkpt>
      <trkpt lat="49.62783" lon="4.98407">
        <ele>239.51</ele>
        <time>2019-08-01T14:50:03Z</time>
      </trkpt>
      <trkpt lat="49.62789" lon="4.98402">
        <ele>238.54</ele>
        <time>2019-08-01T14:50:11Z</time>
      </trkpt>
      <trkpt lat="49.62803" lon="4.98388">
        <ele>235.18</ele>
        <time>2019-08-01T14:50:28Z</time>
      </trkpt>
      <trkpt lat="49.62814" lon="4.98378">
        <ele>233.26</ele>
        <time>2019-08-01T14:50:43Z</time>
      </trkpt>
      <trkpt lat="49.62825" lon="4.98369">
        <ele>231.33</ele>
        <time>2019-08-01T14:50:57Z</time>
      </trkpt>
      <trkpt lat="49.62838" lon="4.98361">
        <ele>225.09</ele>
        <time>2019-08-01T14:51:13Z</time>
      </trkpt>
      <trkpt lat="49.62839" lon="4.9836">
        <ele>224.61</ele>
        <time>2019-08-01T14:51:15Z</time>
      </trkpt>
      <trkpt lat="49.62854" lon="4.98354">
        <ele>220.28</ele>
        <time>2019-08-01T14:51:33Z</time>
      </trkpt>
      <trkpt lat="49.62865" lon="4.9835">
        <ele>216.91</ele>
        <time>2019-08-01T14:51:49Z</time>
      </trkpt>
      <trkpt lat="49.62878" lon="4.98344">
        <ele>221.24</ele>
        <time>2019-08-01T14:52:03Z</time>
      </trkpt>
      <trkpt lat="49.62883" lon="4.98344">
        <ele>223.64</ele>
        <time>2019-08-01T14:52:09Z</time>
      </trkpt>
      <trkpt lat="49.62891" lon="4.98339">
        <ele>227.49</ele>
        <time>2019-08-01T14:52:23Z</time>
      </trkpt>
      <trkpt lat="49.62895" lon="4.98338">
        <ele>228.93</ele>
        <time>2019-08-01T14:52:38Z</time>
      </trkpt>
      <trkpt lat="49.62909" lon="4.98333">
        <ele>228.93</ele>
        <time>2019-08-01T14:52:53Z</time>
      </trkpt>
      <trkpt lat="49.62921" lon="4.98325">
        <ele>229.89</ele>
        <time>2019-08-01T14:53:08Z</time>
      </trkpt>
      <trkpt lat="49.6293" lon="4.98322">
        <ele>230.85</ele>
        <time>2019-08-01T14:53:17Z</time>
      </trkpt>
      <trkpt lat="49.62944" lon="4.98316">
        <ele>232.78</ele>
        <time>2019-08-01T14:53:34Z</time>
      </trkpt>
      <trkpt lat="49.62955" lon="4.98314">
        <ele>233.74</ele>
        <time>2019-08-01T14:53:47Z</time>
      </trkpt>
      <trkpt lat="49.62969" lon="4.98317">
        <ele>233.26</ele>
        <time>2019-08-01T14:54:03Z</time>
      </trkpt>
      <trkpt lat="49.62984" lon="4.98319">
        <ele>231.81</ele>
        <time>2019-08-01T14:54:21Z</time>
      </trkpt>
      <trkpt lat="49.62996" lon="4.98323">
        <ele>228.93</ele>
        <time>2019-08-01T14:54:33Z</time>
      </trkpt>
      <trkpt lat="49.63005" lon="4.98325">
        <ele>226.53</ele>
        <time>2019-08-01T14:54:46Z</time>
      </trkpt>
      <trkpt lat="49.63018" lon="4.98323">
        <ele>226.53</ele>
        <time>2019-08-01T14:55:03Z</time>
      </trkpt>
      <trkpt lat="49.63032" lon="4.98318">
        <ele>227.49</ele>
        <time>2019-08-01T14:55:18Z</time>
      </trkpt>
      <trkpt lat="49.63042" lon="4.98323">
        <ele>229.41</ele>
        <time>2019-08-01T14:55:32Z</time>
      </trkpt>
      <trkpt lat="49.63044" lon="4.98323">
        <ele>229.41</ele>
        <time>2019-08-01T14:55:33Z</time>
      </trkpt>
      <trkpt lat="49.63058" lon="4.98326">
        <ele>227.97</ele>
        <time>2019-08-01T14:55:49Z</time>
      </trkpt>
      <trkpt lat="49.63069" lon="4.98333">
        <ele>227.01</ele>
        <time>2019-08-01T14:56:02Z</time>
      </trkpt>
      <trkpt lat="49.63083" lon="4.98334">
        <ele>229.41</ele>
        <time>2019-08-01T14:56:15Z</time>
      </trkpt>
      <trkpt lat="49.63093" lon="4.98334">
        <ele>229.89</ele>
        <time>2019-08-01T14:56:29Z</time>
      </trkpt>
      <trkpt lat="49.63104" lon="4.98337">
        <ele>232.78</ele>
        <time>2019-08-01T14:56:44Z</time>
      </trkpt>
      <trkpt lat="49.63123" lon="4.98335">
        <ele>235.18</ele>
        <time>2019-08-01T14:57:01Z</time>
      </trkpt>
      <trkpt lat="49.63143" lon="4.98332">
        <ele>233.26</ele>
        <time>2019-08-01T14:57:18Z</time>
      </trkpt>
      <trkpt lat="49.6315" lon="4.9833">
        <ele>230.37</ele>
        <time>2019-08-01T14:57:26Z</time>
      </trkpt>
      <trkpt lat="49.63166" lon="4.98334">
        <ele>225.57</ele>
        <time>2019-08-01T14:57:41Z</time>
      </trkpt>
      <trkpt lat="49.63174" lon="4.98334">
        <ele>223.16</ele>
        <time>2019-08-01T14:57:50Z</time>
      </trkpt>
      <trkpt lat="49.63186" lon="4.98332">
        <ele>220.76</ele>
        <time>2019-08-01T14:58:03Z</time>
      </trkpt>
      <trkpt lat="49.63197" lon="4.98336">
        <ele>220.76</ele>
        <time>2019-08-01T14:58:16Z</time>
      </trkpt>
      <trkpt lat="49.63214" lon="4.98339">
        <ele>221.72</ele>
        <time>2019-08-01T14:58:33Z</time>
      </trkpt>
      <trkpt lat="49.6323" lon="4.98348">
        <ele>220.76</ele>
        <time>2019-08-01T14:58:48Z</time>
      </trkpt>
      <trkpt lat="49.63245" lon="4.98347">
        <ele>220.76</ele>
        <time>2019-08-01T14:59:04Z</time>
      </trkpt>
      <trkpt lat="49.63251" lon="4.98349">
        <ele>221.72</ele>
        <time>2019-08-01T14:59:10Z</time>
      </trkpt>
      <trkpt lat="49.63253" lon="4.98351">
        <ele>221.72</ele>
        <time>2019-08-01T14:59:12Z</time>
      </trkpt>
      <trkpt lat="49.63273" lon="4.98351">
        <ele>221.72</ele>
        <time>2019-08-01T14:59:29Z</time>
      </trkpt>
      <trkpt lat="49.63287" lon="4.9835">
        <ele>221.72</ele>
        <time>2019-08-01T14:59:45Z</time>
      </trkpt>
      <trkpt lat="49.63304" lon="4.98351">
        <ele>219.32</ele>
        <time>2019-08-01T15:00:05Z</time>
      </trkpt>
      <trkpt lat="49.63319" lon="4.98352">
        <ele>214.03</ele>
        <time>2019-08-01T15:00:22Z</time>
      </trkpt>
      <trkpt lat="49.6333" lon="4.98353">
        <ele>211.15</ele>
        <time>2019-08-01T15:00:35Z</time>
      </trkpt>
      <trkpt lat="49.63338" lon="4.98351">
        <ele>208.26</ele>
        <time>2019-08-01T15:00:49Z</time>
      </trkpt>
      <trkpt lat="49.63352" lon="4.98345">
        <ele>203.46</ele>
        <time>2019-08-01T15:01:06Z</time>
      </trkpt>
      <trkpt lat="49.63366" lon="4.98338">
        <ele>201.05</ele>
        <time>2019-08-01T15:01:23Z</time>
      </trkpt>
      <trkpt lat="49.63377" lon="4.98327">
        <ele>202.01</ele>
        <time>2019-08-01T15:01:40Z</time>
      </trkpt>
      <trkpt lat="49.63387" lon="4.98322">
        <ele>203.46</ele>
        <time>2019-08-01T15:01:53Z</time>
      </trkpt>
      <trkpt lat="49.63399" lon="4.98314">
        <ele>200.57</ele>
        <time>2019-08-01T15:02:09Z</time>
      </trkpt>
      <trkpt lat="49.63401" lon="4.9831">
        <ele>198.17</ele>
        <time>2019-08-01T15:02:24Z</time>
      </trkpt>
      <trkpt lat="49.63408" lon="4.98303">
        <ele>196.73</ele>
        <time>2019-08-01T15:02:37Z</time>
      </trkpt>
      <trkpt lat="49.63412" lon="4.98296">
        <ele>195.77</ele>
        <time>2019-08-01T15:02:51Z</time>
      </trkpt>
      <trkpt lat="49.6342" lon="4.98287">
        <ele>193.84</ele>
        <time>2019-08-01T15:03:09Z</time>
      </trkpt>
      <trkpt lat="49.6343" lon="4.98273">
        <ele>190.48</ele>
        <time>2019-08-01T15:03:25Z</time>
      </trkpt>
      <trkpt lat="49.63435" lon="4.98266">
        <ele>190</ele>
        <time>2019-08-01T15:03:38Z</time>
      </trkpt>
      <trkpt lat="49.63443" lon="4.98256">
        <ele>188.08</ele>
        <time>2019-08-01T15:03:51Z</time>
      </trkpt>
      <trkpt lat="49.63453" lon="4.98242">
        <ele>186.63</ele>
        <time>2019-08-01T15:04:07Z</time>
      </trkpt>
      <trkpt lat="49.6346" lon="4.98226">
        <ele>187.11</ele>
        <time>2019-08-01T15:04:22Z</time>
      </trkpt>
      <trkpt lat="49.63467" lon="4.98212">
        <ele>185.19</ele>
        <time>2019-08-01T15:04:36Z</time>
      </trkpt>
      <trkpt lat="49.63468" lon="4.98209">
        <ele>184.71</ele>
        <time>2019-08-01T15:04:38Z</time>
      </trkpt>
      <trkpt lat="49.63474" lon="4.98188">
        <ele>182.31</ele>
        <time>2019-08-01T15:04:55Z</time>
      </trkpt>
      <trkpt lat="49.63479" lon="4.98171">
        <ele>180.38</ele>
        <time>2019-08-01T15:05:10Z</time>
      </trkpt>
      <trkpt lat="49.63488" lon="4.98149">
        <ele>178.94</ele>
        <time>2019-08-01T15:05:28Z</time>
      </trkpt>
      <trkpt lat="49.63491" lon="4.98129">
        <ele>180.38</ele>
        <time>2019-08-01T15:05:44Z</time>
      </trkpt>
      <trkpt lat="49.6349" lon="4.98127">
        <ele>180.87</ele>
        <time>2019-08-01T15:05:46Z</time>
      </trkpt>
      <trkpt lat="49.6348" lon="4.98109">
        <ele>181.83</ele>
        <time>2019-08-01T15:06:04Z</time>
      </trkpt>
      <trkpt lat="49.63471" lon="4.98095">
        <ele>185.67</ele>
        <time>2019-08-01T15:06:20Z</time>
      </trkpt>
      <trkpt lat="49.63468" lon="4.98083">
        <ele>184.23</ele>
        <time>2019-08-01T15:06:37Z</time>
      </trkpt>
      <trkpt lat="49.63467" lon="4.98083">
        <ele>182.31</ele>
        <time>2019-08-01T15:07:00Z</time>
      </trkpt>
      <trkpt lat="49.63466" lon="4.98082">
        <ele>181.35</ele>
        <time>2019-08-01T15:07:27Z</time>
      </trkpt>
      <trkpt lat="49.63465" lon="4.98079">
        <ele>180.38</ele>
        <time>2019-08-01T15:07:51Z</time>
      </trkpt>
      <trkpt lat="49.63459" lon="4.98066">
        <ele>181.35</ele>
        <time>2019-08-01T15:08:03Z</time>
      </trkpt>
      <trkpt lat="49.63454" lon="4.98058">
        <ele>182.31</ele>
        <time>2019-08-01T15:08:18Z</time>
      </trkpt>
      <trkpt lat="49.6345" lon="4.98056">
        <ele>182.31</ele>
        <time>2019-08-01T15:08:32Z</time>
      </trkpt>
      <trkpt lat="49.63448" lon="4.98055">
        <ele>183.27</ele>
        <time>2019-08-01T15:08:49Z</time>
      </trkpt>
    </trkseg>
  </trk>
</gpx>